<?xml version="1.0" encoding="UTF-8" standalone="no" ?><gpx xmlns="http://www.topografix.com/GPX/1/1" xmlns:gpxx="http://www.garmin.com/xmlschemas/GpxExtensions/v3" xmlns:wptx1="http://www.garmin.com/xmlschemas/WaypointExtension/v1" xmlns:gpxtpx="http://www.garmin.com/xmlschemas/TrackPointExtension/v1" creator="Dakota 20" version="1.1" xmlns:xsi="http://www.w3.org/2001/XMLSchema-instance" xsi:schemaLocation="http://www.topografix.com/GPX/1/1 http://www.topografix.com/GPX/1/1/gpx.xsd http://www.garmin.com/xmlschemas/GpxExtensions/v3 http://www8.garmin.com/xmlschemas/GpxExtensionsv3.xsd http://www.garmin.com/xmlschemas/WaypointExtension/v1 http://www8.garmin.com/xmlschemas/WaypointExtensionv1.xsd http://www.garmin.com/xmlschemas/TrackPointExtension/v1 http://www.garmin.com/xmlschemas/TrackPointExtensionv1.xsd"><metadata><link href="http://www.garmin.com"><text>Garmin International</text></link><time>2015-03-11T18:01:46Z</time></metadata><trk><name>Current Track: 11 MAR 2015 10:00</name><extensions><gpxx:TrackExtension><gpxx:DisplayColor>Cyan</gpxx:DisplayColor></gpxx:TrackExtension></extensions><trkseg><trkpt lat="51.9317883253" lon="-1.6625978518"><ele>135.20</ele><time>2015-03-11T10:00:21Z</time></trkpt><trkpt lat="51.9317920133" lon="-1.6625939962"><ele>135.20</ele><time>2015-03-11T10:00:45Z</time></trkpt><trkpt lat="51.9318013173" lon="-1.6625847761"><ele>135.68</ele><time>2015-03-11T10:01:02Z</time></trkpt><trkpt lat="51.9318109564" lon="-1.6625891346"><ele>135.68</ele><time>2015-03-11T10:01:24Z</time></trkpt><trkpt lat="51.9318086933" lon="-1.6625873744"><ele>135.68</ele><time>2015-03-11T10:01:49Z</time></trkpt><trkpt lat="51.9318304025" lon="-1.6625537630"><ele>135.20</ele><time>2015-03-11T10:02:11Z</time></trkpt><trkpt lat="51.9318763353" lon="-1.6625455488"><ele>135.68</ele><time>2015-03-11T10:02:24Z</time></trkpt><trkpt lat="51.9320798479" lon="-1.6625753883"><ele>134.72</ele><time>2015-03-11T10:02:43Z</time></trkpt><trkpt lat="51.9321993738" lon="-1.6626503225"><ele>134.72</ele><time>2015-03-11T10:02:57Z</time></trkpt><trkpt lat="51.9323151279" lon="-1.6627217364"><ele>133.76</ele><time>2015-03-11T10:03:14Z</time></trkpt><trkpt lat="51.9325418584" lon="-1.6628344730"><ele>132.80</ele><time>2015-03-11T10:03:35Z</time></trkpt><trkpt lat="51.9327642303" lon="-1.6629770491"><ele>132.80</ele><time>2015-03-11T10:03:53Z</time></trkpt><trkpt lat="51.9330406655" lon="-1.6631298512"><ele>132.32</ele><time>2015-03-11T10:04:13Z</time></trkpt><trkpt lat="51.9331813976" lon="-1.6632224713"><ele>130.88</ele><time>2015-03-11T10:04:27Z</time></trkpt><trkpt lat="51.9333795458" lon="-1.6633139178"><ele>130.40</ele><time>2015-03-11T10:04:45Z</time></trkpt><trkpt lat="51.9335362036" lon="-1.6633958928"><ele>130.40</ele><time>2015-03-11T10:05:02Z</time></trkpt><trkpt lat="51.9337429851" lon="-1.6634973139"><ele>129.92</ele><time>2015-03-11T10:05:22Z</time></trkpt><trkpt lat="51.9339107070" lon="-1.6636279877"><ele>128.95</ele><time>2015-03-11T10:05:41Z</time></trkpt><trkpt lat="51.9340773392" lon="-1.6635766905"><ele>127.99</ele><time>2015-03-11T10:05:57Z</time></trkpt><trkpt lat="51.9342633337" lon="-1.6634502914"><ele>127.99</ele><time>2015-03-11T10:06:17Z</time></trkpt><trkpt lat="51.9343115296" lon="-1.6633171868"><ele>127.51</ele><time>2015-03-11T10:06:26Z</time></trkpt><trkpt lat="51.9343821891" lon="-1.6630358063"><ele>127.99</ele><time>2015-03-11T10:06:43Z</time></trkpt><trkpt lat="51.9344214164" lon="-1.6627728660"><ele>127.51</ele><time>2015-03-11T10:06:57Z</time></trkpt><trkpt lat="51.9344545249" lon="-1.6625676770"><ele>127.51</ele><time>2015-03-11T10:07:13Z</time></trkpt><trkpt lat="51.9345173892" lon="-1.6622378491"><ele>126.55</ele><time>2015-03-11T10:07:32Z</time></trkpt><trkpt lat="51.9345400203" lon="-1.6619844642"><ele>125.59</ele><time>2015-03-11T10:07:47Z</time></trkpt><trkpt lat="51.9345857017" lon="-1.6617216077"><ele>125.11</ele><time>2015-03-11T10:08:06Z</time></trkpt><trkpt lat="51.9346444588" lon="-1.6614305880"><ele>123.19</ele><time>2015-03-11T10:08:23Z</time></trkpt><trkpt lat="51.9347138610" lon="-1.6611321922"><ele>122.71</ele><time>2015-03-11T10:08:45Z</time></trkpt><trkpt lat="51.9347544294" lon="-1.6609306075"><ele>122.22</ele><time>2015-03-11T10:08:59Z</time></trkpt><trkpt lat="51.9348241668" lon="-1.6606879514"><ele>122.22</ele><time>2015-03-11T10:09:19Z</time></trkpt><trkpt lat="51.9348474685" lon="-1.6605058964"><ele>122.71</ele><time>2015-03-11T10:09:37Z</time></trkpt><trkpt lat="51.9348956645" lon="-1.6603408568"><ele>122.22</ele><time>2015-03-11T10:09:55Z</time></trkpt><trkpt lat="51.9350042101" lon="-1.6600479092"><ele>123.19</ele><time>2015-03-11T10:10:13Z</time></trkpt><trkpt lat="51.9350602850" lon="-1.6598708834"><ele>123.67</ele><time>2015-03-11T10:10:32Z</time></trkpt><trkpt lat="51.9350746181" lon="-1.6597745754"><ele>123.19</ele><time>2015-03-11T10:10:54Z</time></trkpt><trkpt lat="51.9350994285" lon="-1.6597086098"><ele>123.67</ele><time>2015-03-11T10:11:13Z</time></trkpt><trkpt lat="51.9351130910" lon="-1.6596758366"><ele>123.19</ele><time>2015-03-11T10:11:16Z</time></trkpt><trkpt lat="51.9351453613" lon="-1.6593644489"><ele>124.15</ele><time>2015-03-11T10:11:33Z</time></trkpt><trkpt lat="51.9351931382" lon="-1.6590923723"><ele>123.67</ele><time>2015-03-11T10:11:48Z</time></trkpt><trkpt lat="51.9352213014" lon="-1.6588208824"><ele>125.11</ele><time>2015-03-11T10:12:06Z</time></trkpt><trkpt lat="51.9352636300" lon="-1.6585428547"><ele>126.07</ele><time>2015-03-11T10:12:24Z</time></trkpt><trkpt lat="51.9352865126" lon="-1.6582359932"><ele>127.03</ele><time>2015-03-11T10:12:42Z</time></trkpt><trkpt lat="51.9353159331" lon="-1.6580569558"><ele>127.99</ele><time>2015-03-11T10:12:56Z</time></trkpt><trkpt lat="51.9353265781" lon="-1.6578870546"><ele>127.51</ele><time>2015-03-11T10:13:12Z</time></trkpt><trkpt lat="51.9352978282" lon="-1.6577044129"><ele>127.51</ele><time>2015-03-11T10:13:26Z</time></trkpt><trkpt lat="51.9353012647" lon="-1.6577746533"><ele>127.51</ele><time>2015-03-11T10:13:49Z</time></trkpt><trkpt lat="51.9353358820" lon="-1.6576994676"><ele>126.55</ele><time>2015-03-11T10:14:08Z</time></trkpt><trkpt lat="51.9353405759" lon="-1.6576324124"><ele>126.07</ele><time>2015-03-11T10:14:14Z</time></trkpt><trkpt lat="51.9353233930" lon="-1.6574975476"><ele>126.07</ele><time>2015-03-11T10:14:21Z</time></trkpt><trkpt lat="51.9352853391" lon="-1.6571781971"><ele>125.59</ele><time>2015-03-11T10:14:37Z</time></trkpt><trkpt lat="51.9352397416" lon="-1.6569382232"><ele>124.15</ele><time>2015-03-11T10:14:49Z</time></trkpt><trkpt lat="51.9352218881" lon="-1.6567979101"><ele>124.15</ele><time>2015-03-11T10:14:54Z</time></trkpt><trkpt lat="51.9351875223" lon="-1.6566581000"><ele>123.19</ele><time>2015-03-11T10:14:57Z</time></trkpt><trkpt lat="51.9351196289" lon="-1.6562359035"><ele>123.19</ele><time>2015-03-11T10:15:14Z</time></trkpt><trkpt lat="51.9351627957" lon="-1.6560048144"><ele>123.19</ele><time>2015-03-11T10:15:27Z</time></trkpt><trkpt lat="51.9352766220" lon="-1.6561768949"><ele>123.67</ele><time>2015-03-11T10:15:43Z</time></trkpt><trkpt lat="51.9353865925" lon="-1.6561421100"><ele>123.19</ele><time>2015-03-11T10:15:56Z</time></trkpt><trkpt lat="51.9354689028" lon="-1.6560368333"><ele>122.71</ele><time>2015-03-11T10:16:11Z</time></trkpt><trkpt lat="51.9354823139" lon="-1.6559844464"><ele>122.71</ele><time>2015-03-11T10:16:20Z</time></trkpt><trkpt lat="51.9355246425" lon="-1.6558505874"><ele>122.71</ele><time>2015-03-11T10:16:26Z</time></trkpt><trkpt lat="51.9356389716" lon="-1.6555871442"><ele>123.19</ele><time>2015-03-11T10:16:43Z</time></trkpt><trkpt lat="51.9357274845" lon="-1.6554076876"><ele>123.19</ele><time>2015-03-11T10:16:58Z</time></trkpt><trkpt lat="51.9358144887" lon="-1.6552423127"><ele>124.15</ele><time>2015-03-11T10:17:13Z</time></trkpt><trkpt lat="51.9358955417" lon="-1.6550952103"><ele>124.15</ele><time>2015-03-11T10:17:28Z</time></trkpt><trkpt lat="51.9359600823" lon="-1.6549656261"><ele>124.15</ele><time>2015-03-11T10:17:41Z</time></trkpt><trkpt lat="51.9360280596" lon="-1.6547933780"><ele>124.63</ele><time>2015-03-11T10:17:56Z</time></trkpt><trkpt lat="51.9361144770" lon="-1.6546173580"><ele>124.15</ele><time>2015-03-11T10:18:11Z</time></trkpt><trkpt lat="51.9361832924" lon="-1.6544406675"><ele>123.67</ele><time>2015-03-11T10:18:26Z</time></trkpt><trkpt lat="51.9362878986" lon="-1.6543227341"><ele>123.67</ele><time>2015-03-11T10:18:41Z</time></trkpt><trkpt lat="51.9363957737" lon="-1.6541605443"><ele>122.71</ele><time>2015-03-11T10:18:56Z</time></trkpt><trkpt lat="51.9364935067" lon="-1.6539798304"><ele>123.19</ele><time>2015-03-11T10:19:11Z</time></trkpt><trkpt lat="51.9365826901" lon="-1.6538117733"><ele>122.71</ele><time>2015-03-11T10:19:28Z</time></trkpt><trkpt lat="51.9366840273" lon="-1.6536453087"><ele>121.74</ele><time>2015-03-11T10:19:44Z</time></trkpt><trkpt lat="51.9368094206" lon="-1.6535519343"><ele>121.26</ele><time>2015-03-11T10:20:01Z</time></trkpt><trkpt lat="51.9368384220" lon="-1.6535322368"><ele>121.74</ele><time>2015-03-11T10:20:06Z</time></trkpt><trkpt lat="51.9368983526" lon="-1.6535184067"><ele>122.22</ele><time>2015-03-11T10:20:10Z</time></trkpt><trkpt lat="51.9370605424" lon="-1.6534334980"><ele>122.22</ele><time>2015-03-11T10:20:26Z</time></trkpt><trkpt lat="51.9371202216" lon="-1.6533884034"><ele>122.22</ele><time>2015-03-11T10:20:34Z</time></trkpt><trkpt lat="51.9372555055" lon="-1.6533053387"><ele>121.74</ele><time>2015-03-11T10:20:51Z</time></trkpt><trkpt lat="51.9372872729" lon="-1.6532125510"><ele>122.22</ele><time>2015-03-11T10:21:01Z</time></trkpt><trkpt lat="51.9373532385" lon="-1.6530005727"><ele>122.71</ele><time>2015-03-11T10:21:16Z</time></trkpt><trkpt lat="51.9373754505" lon="-1.6528999060"><ele>122.22</ele><time>2015-03-11T10:21:30Z</time></trkpt><trkpt lat="51.9374150131" lon="-1.6526837368"><ele>122.71</ele><time>2015-03-11T10:21:44Z</time></trkpt><trkpt lat="51.9374586828" lon="-1.6524945572"><ele>122.22</ele><time>2015-03-11T10:21:59Z</time></trkpt><trkpt lat="51.9374817330" lon="-1.6524238978"><ele>123.19</ele><time>2015-03-11T10:22:05Z</time></trkpt><trkpt lat="51.9375432562" lon="-1.6523267515"><ele>123.19</ele><time>2015-03-11T10:22:20Z</time></trkpt><trkpt lat="51.9375578407" lon="-1.6522828303"><ele>122.71</ele><time>2015-03-11T10:22:23Z</time></trkpt><trkpt lat="51.9375997502" lon="-1.6521144379"><ele>122.22</ele><time>2015-03-11T10:22:37Z</time></trkpt><trkpt lat="51.9376331940" lon="-1.6519273538"><ele>122.71</ele><time>2015-03-11T10:22:48Z</time></trkpt><trkpt lat="51.9376450963" lon="-1.6518286150"><ele>122.71</ele><time>2015-03-11T10:22:53Z</time></trkpt><trkpt lat="51.9377559051" lon="-1.6516193189"><ele>124.15</ele><time>2015-03-11T10:23:08Z</time></trkpt><trkpt lat="51.9379126467" lon="-1.6514531896"><ele>123.67</ele><time>2015-03-11T10:23:26Z</time></trkpt><trkpt lat="51.9380932767" lon="-1.6513652634"><ele>124.15</ele><time>2015-03-11T10:23:44Z</time></trkpt><trkpt lat="51.9382863957" lon="-1.6513479128"><ele>124.63</ele><time>2015-03-11T10:24:03Z</time></trkpt><trkpt lat="51.9384463225" lon="-1.6513504274"><ele>125.11</ele><time>2015-03-11T10:24:22Z</time></trkpt><trkpt lat="51.9384541176" lon="-1.6513522714"><ele>125.11</ele><time>2015-03-11T10:24:23Z</time></trkpt><trkpt lat="51.9385600649" lon="-1.6513552889"><ele>125.11</ele><time>2015-03-11T10:24:34Z</time></trkpt><trkpt lat="51.9387430418" lon="-1.6513189115"><ele>125.59</ele><time>2015-03-11T10:24:52Z</time></trkpt><trkpt lat="51.9389119372" lon="-1.6512750741"><ele>125.59</ele><time>2015-03-11T10:25:11Z</time></trkpt><trkpt lat="51.9390923996" lon="-1.6512616631"><ele>125.59</ele><time>2015-03-11T10:25:32Z</time></trkpt><trkpt lat="51.9391360693" lon="-1.6512544546"><ele>125.11</ele><time>2015-03-11T10:25:52Z</time></trkpt><trkpt lat="51.9391617179" lon="-1.6512272973"><ele>125.11</ele><time>2015-03-11T10:26:10Z</time></trkpt><trkpt lat="51.9392291922" lon="-1.6512588970"><ele>126.07</ele><time>2015-03-11T10:26:28Z</time></trkpt><trkpt lat="51.9394003507" lon="-1.6511190031"><ele>126.07</ele><time>2015-03-11T10:26:50Z</time></trkpt><trkpt lat="51.9394637179" lon="-1.6510030814"><ele>126.07</ele><time>2015-03-11T10:27:07Z</time></trkpt><trkpt lat="51.9395311084" lon="-1.6508719046"><ele>126.55</ele><time>2015-03-11T10:27:24Z</time></trkpt><trkpt lat="51.9395757001" lon="-1.6506519634"><ele>127.51</ele><time>2015-03-11T10:27:42Z</time></trkpt><trkpt lat="51.9396467786" lon="-1.6504452657"><ele>127.99</ele><time>2015-03-11T10:27:59Z</time></trkpt><trkpt lat="51.9397075474" lon="-1.6501631308"><ele>128.95</ele><time>2015-03-11T10:28:20Z</time></trkpt><trkpt lat="51.9397762790" lon="-1.6499852668"><ele>130.40</ele><time>2015-03-11T10:28:36Z</time></trkpt><trkpt lat="51.9398523029" lon="-1.6497320496"><ele>131.84</ele><time>2015-03-11T10:28:57Z</time></trkpt><trkpt lat="51.9399187714" lon="-1.6494643316"><ele>133.28</ele><time>2015-03-11T10:29:15Z</time></trkpt><trkpt lat="51.9400021713" lon="-1.6492258664"><ele>133.76</ele><time>2015-03-11T10:29:36Z</time></trkpt><trkpt lat="51.9400491100" lon="-1.6491696239"><ele>134.24</ele><time>2015-03-11T10:29:56Z</time></trkpt><trkpt lat="51.9400187675" lon="-1.6491734795"><ele>134.72</ele><time>2015-03-11T10:30:16Z</time></trkpt><trkpt lat="51.9400421530" lon="-1.6490091104"><ele>134.72</ele><time>2015-03-11T10:30:35Z</time></trkpt><trkpt lat="51.9400755968" lon="-1.6488651931"><ele>135.68</ele><time>2015-03-11T10:30:44Z</time></trkpt><trkpt lat="51.9400969706" lon="-1.6487110499"><ele>136.16</ele><time>2015-03-11T10:30:53Z</time></trkpt><trkpt lat="51.9401458371" lon="-1.6485316772"><ele>137.13</ele><time>2015-03-11T10:31:08Z</time></trkpt><trkpt lat="51.9402237888" lon="-1.6483366303"><ele>138.09</ele><time>2015-03-11T10:31:28Z</time></trkpt><trkpt lat="51.9403312448" lon="-1.6481287591"><ele>138.09</ele><time>2015-03-11T10:31:46Z</time></trkpt><trkpt lat="51.9403577317" lon="-1.6479448602"><ele>139.53</ele><time>2015-03-11T10:32:04Z</time></trkpt><trkpt lat="51.9403763395" lon="-1.6479361430"><ele>140.01</ele><time>2015-03-11T10:32:18Z</time></trkpt><trkpt lat="51.9403827935" lon="-1.6478172038"><ele>138.57</ele><time>2015-03-11T10:32:31Z</time></trkpt><trkpt lat="51.9404597394" lon="-1.6475972626"><ele>139.53</ele><time>2015-03-11T10:32:47Z</time></trkpt><trkpt lat="51.9405748229" lon="-1.6474624816"><ele>139.53</ele><time>2015-03-11T10:33:08Z</time></trkpt><trkpt lat="51.9407111127" lon="-1.6473474819"><ele>138.57</ele><time>2015-03-11T10:33:25Z</time></trkpt><trkpt lat="51.9408968557" lon="-1.6472693626"><ele>139.05</ele><time>2015-03-11T10:33:43Z</time></trkpt><trkpt lat="51.9410390966" lon="-1.6472973581"><ele>139.53</ele><time>2015-03-11T10:33:59Z</time></trkpt><trkpt lat="51.9411574490" lon="-1.6472812649"><ele>138.57</ele><time>2015-03-11T10:34:13Z</time></trkpt><trkpt lat="51.9412279408" lon="-1.6472820193"><ele>138.57</ele><time>2015-03-11T10:34:22Z</time></trkpt><trkpt lat="51.9413245004" lon="-1.6473944206"><ele>138.09</ele><time>2015-03-11T10:34:35Z</time></trkpt><trkpt lat="51.9413436111" lon="-1.6474209912"><ele>138.09</ele><time>2015-03-11T10:34:43Z</time></trkpt><trkpt lat="51.9414011110" lon="-1.6475271899"><ele>137.61</ele><time>2015-03-11T10:34:57Z</time></trkpt><trkpt lat="51.9414101634" lon="-1.6475319676"><ele>138.09</ele><time>2015-03-11T10:35:13Z</time></trkpt><trkpt lat="51.9414131809" lon="-1.6475328058"><ele>138.09</ele><time>2015-03-11T10:35:36Z</time></trkpt><trkpt lat="51.9414007757" lon="-1.6475400981"><ele>137.61</ele><time>2015-03-11T10:35:53Z</time></trkpt><trkpt lat="51.9413931482" lon="-1.6475525033"><ele>138.57</ele><time>2015-03-11T10:36:22Z</time></trkpt><trkpt lat="51.9414172880" lon="-1.6475865338"><ele>137.13</ele><time>2015-03-11T10:36:44Z</time></trkpt><trkpt lat="51.9414243288" lon="-1.6475976817"><ele>137.61</ele><time>2015-03-11T10:36:45Z</time></trkpt><trkpt lat="51.9414902944" lon="-1.6476812493"><ele>137.61</ele><time>2015-03-11T10:36:51Z</time></trkpt><trkpt lat="51.9415671565" lon="-1.6477686726"><ele>137.13</ele><time>2015-03-11T10:36:58Z</time></trkpt><trkpt lat="51.9416301884" lon="-1.6478637233"><ele>136.64</ele><time>2015-03-11T10:37:09Z</time></trkpt><trkpt lat="51.9416945614" lon="-1.6481149290"><ele>136.16</ele><time>2015-03-11T10:37:24Z</time></trkpt><trkpt lat="51.9417852536" lon="-1.6482432559"><ele>135.20</ele><time>2015-03-11T10:37:37Z</time></trkpt><trkpt lat="51.9417979941" lon="-1.6482931282"><ele>133.76</ele><time>2015-03-11T10:37:40Z</time></trkpt><trkpt lat="51.9418480340" lon="-1.6484493669"><ele>134.24</ele><time>2015-03-11T10:37:55Z</time></trkpt><trkpt lat="51.9419282489" lon="-1.6485748440"><ele>133.28</ele><time>2015-03-11T10:38:10Z</time></trkpt><trkpt lat="51.9419849943" lon="-1.6486879159"><ele>132.32</ele><time>2015-03-11T10:38:23Z</time></trkpt><trkpt lat="51.9420352858" lon="-1.6488500219"><ele>132.32</ele><time>2015-03-11T10:38:43Z</time></trkpt><trkpt lat="51.9420667179" lon="-1.6490194201"><ele>132.32</ele><time>2015-03-11T10:38:56Z</time></trkpt><trkpt lat="51.9420899358" lon="-1.6491793469"><ele>131.84</ele><time>2015-03-11T10:39:11Z</time></trkpt><trkpt lat="51.9421400595" lon="-1.6493899003"><ele>131.36</ele><time>2015-03-11T10:39:25Z</time></trkpt><trkpt lat="51.9422493596" lon="-1.6494929139"><ele>130.88</ele><time>2015-03-11T10:39:39Z</time></trkpt><trkpt lat="51.9422756787" lon="-1.6495103482"><ele>130.88</ele><time>2015-03-11T10:39:42Z</time></trkpt><trkpt lat="51.9423378725" lon="-1.6495384276"><ele>131.36</ele><time>2015-03-11T10:39:50Z</time></trkpt><trkpt lat="51.9424765091" lon="-1.6495605558"><ele>130.88</ele><time>2015-03-11T10:40:04Z</time></trkpt><trkpt lat="51.9425124675" lon="-1.6494981945"><ele>130.88</ele><time>2015-03-11T10:40:20Z</time></trkpt><trkpt lat="51.9425186701" lon="-1.6494807601"><ele>131.36</ele><time>2015-03-11T10:40:37Z</time></trkpt><trkpt lat="51.9425185863" lon="-1.6494615655"><ele>131.36</ele><time>2015-03-11T10:40:55Z</time></trkpt><trkpt lat="51.9425214361" lon="-1.6494575422"><ele>131.36</ele><time>2015-03-11T10:41:18Z</time></trkpt><trkpt lat="51.9425304048" lon="-1.6494334862"><ele>130.88</ele><time>2015-03-11T10:41:37Z</time></trkpt><trkpt lat="51.9425436482" lon="-1.6492628306"><ele>131.36</ele><time>2015-03-11T10:41:52Z</time></trkpt><trkpt lat="51.9425499346" lon="-1.6490957793"><ele>131.36</ele><time>2015-03-11T10:42:09Z</time></trkpt><trkpt lat="51.9425677042" lon="-1.6490214318"><ele>131.36</ele><time>2015-03-11T10:42:13Z</time></trkpt><trkpt lat="51.9425866473" lon="-1.6487691365"><ele>131.84</ele><time>2015-03-11T10:42:28Z</time></trkpt><trkpt lat="51.9426163193" lon="-1.6485417355"><ele>131.84</ele><time>2015-03-11T10:42:42Z</time></trkpt><trkpt lat="51.9426181633" lon="-1.6484051943"><ele>133.28</ele><time>2015-03-11T10:42:53Z</time></trkpt><trkpt lat="51.9426212646" lon="-1.6482117400"><ele>133.28</ele><time>2015-03-11T10:43:08Z</time></trkpt><trkpt lat="51.9426140562" lon="-1.6481674835"><ele>133.76</ele><time>2015-03-11T10:43:11Z</time></trkpt><trkpt lat="51.9426417165" lon="-1.6479459498"><ele>134.72</ele><time>2015-03-11T10:43:26Z</time></trkpt><trkpt lat="51.9426954444" lon="-1.6477549262"><ele>135.68</ele><time>2015-03-11T10:43:41Z</time></trkpt><trkpt lat="51.9427139685" lon="-1.6475393437"><ele>136.64</ele><time>2015-03-11T10:43:58Z</time></trkpt><trkpt lat="51.9427431375" lon="-1.6473692749"><ele>138.09</ele><time>2015-03-11T10:44:10Z</time></trkpt><trkpt lat="51.9427527767" lon="-1.6472531017"><ele>138.57</ele><time>2015-03-11T10:44:19Z</time></trkpt><trkpt lat="51.9427894056" lon="-1.6469889879"><ele>139.53</ele><time>2015-03-11T10:44:36Z</time></trkpt><trkpt lat="51.9428118691" lon="-1.6467847209"><ele>140.49</ele><time>2015-03-11T10:44:50Z</time></trkpt><trkpt lat="51.9428155571" lon="-1.6467408836"><ele>140.97</ele><time>2015-03-11T10:44:53Z</time></trkpt><trkpt lat="51.9428378530" lon="-1.6464977246"><ele>141.93</ele><time>2015-03-11T10:45:10Z</time></trkpt><trkpt lat="51.9428397808" lon="-1.6462908592"><ele>142.89</ele><time>2015-03-11T10:45:24Z</time></trkpt><trkpt lat="51.9428529404" lon="-1.6461046133"><ele>143.37</ele><time>2015-03-11T10:45:38Z</time></trkpt><trkpt lat="51.9428435527" lon="-1.6459028609"><ele>144.34</ele><time>2015-03-11T10:45:52Z</time></trkpt><trkpt lat="51.9428440556" lon="-1.6457418445"><ele>144.34</ele><time>2015-03-11T10:46:06Z</time></trkpt><trkpt lat="51.9428535271" lon="-1.6455662437"><ele>145.30</ele><time>2015-03-11T10:46:18Z</time></trkpt><trkpt lat="51.9428555388" lon="-1.6452819295"><ele>146.26</ele><time>2015-03-11T10:46:36Z</time></trkpt><trkpt lat="51.9428596459" lon="-1.6450189892"><ele>147.22</ele><time>2015-03-11T10:46:54Z</time></trkpt><trkpt lat="51.9428583886" lon="-1.6447955277"><ele>147.70</ele><time>2015-03-11T10:47:09Z</time></trkpt><trkpt lat="51.9428648427" lon="-1.6445530392"><ele>148.66</ele><time>2015-03-11T10:47:25Z</time></trkpt><trkpt lat="51.9428650942" lon="-1.6443018336"><ele>149.14</ele><time>2015-03-11T10:47:42Z</time></trkpt><trkpt lat="51.9428687822" lon="-1.6441501211"><ele>148.66</ele><time>2015-03-11T10:47:58Z</time></trkpt><trkpt lat="51.9428612385" lon="-1.6439575050"><ele>150.10</ele><time>2015-03-11T10:48:13Z</time></trkpt><trkpt lat="51.9428776670" lon="-1.6437674873"><ele>150.58</ele><time>2015-03-11T10:48:27Z</time></trkpt><trkpt lat="51.9428624120" lon="-1.6436191276"><ele>151.54</ele><time>2015-03-11T10:48:44Z</time></trkpt><trkpt lat="51.9428538624" lon="-1.6436159424"><ele>151.06</ele><time>2015-03-11T10:48:56Z</time></trkpt><trkpt lat="51.9428605679" lon="-1.6435652319"><ele>151.06</ele><time>2015-03-11T10:48:59Z</time></trkpt><trkpt lat="51.9428644236" lon="-1.6434374917"><ele>152.03</ele><time>2015-03-11T10:49:06Z</time></trkpt><trkpt lat="51.9428605679" lon="-1.6432836000"><ele>152.03</ele><time>2015-03-11T10:49:14Z</time></trkpt><trkpt lat="51.9428651780" lon="-1.6430813447"><ele>152.99</ele><time>2015-03-11T10:49:27Z</time></trkpt><trkpt lat="51.9428622443" lon="-1.6430672631"><ele>153.47</ele><time>2015-03-11T10:49:28Z</time></trkpt><trkpt lat="51.9428474084" lon="-1.6429198254"><ele>153.95</ele><time>2015-03-11T10:49:37Z</time></trkpt><trkpt lat="51.9428401999" lon="-1.6428377666"><ele>153.95</ele><time>2015-03-11T10:49:42Z</time></trkpt><trkpt lat="51.9428560417" lon="-1.6425682884"><ele>156.35</ele><time>2015-03-11T10:49:58Z</time></trkpt><trkpt lat="51.9428877253" lon="-1.6424511932"><ele>156.83</ele><time>2015-03-11T10:50:05Z</time></trkpt><trkpt lat="51.9428882282" lon="-1.6424101219"><ele>157.31</ele><time>2015-03-11T10:50:07Z</time></trkpt><trkpt lat="51.9429117814" lon="-1.6422722396"><ele>157.31</ele><time>2015-03-11T10:50:14Z</time></trkpt><trkpt lat="51.9429039024" lon="-1.6420419887"><ele>160.20</ele><time>2015-03-11T10:50:31Z</time></trkpt><trkpt lat="51.9428373501" lon="-1.6417848319"><ele>162.60</ele><time>2015-03-11T10:50:48Z</time></trkpt><trkpt lat="51.9427996315" lon="-1.6416762862"><ele>163.56</ele><time>2015-03-11T10:50:55Z</time></trkpt><trkpt lat="51.9427490048" lon="-1.6414389946"><ele>166.45</ele><time>2015-03-11T10:51:10Z</time></trkpt><trkpt lat="51.9427410420" lon="-1.6413116734"><ele>167.41</ele><time>2015-03-11T10:51:23Z</time></trkpt><trkpt lat="51.9427427184" lon="-1.6412692610"><ele>167.41</ele><time>2015-03-11T10:51:38Z</time></trkpt><trkpt lat="51.9427248649" lon="-1.6412850190"><ele>167.41</ele><time>2015-03-11T10:51:56Z</time></trkpt><trkpt lat="51.9427289721" lon="-1.6412796546"><ele>167.41</ele><time>2015-03-11T10:52:12Z</time></trkpt><trkpt lat="51.9427238591" lon="-1.6412565205"><ele>167.89</ele><time>2015-03-11T10:52:33Z</time></trkpt><trkpt lat="51.9427097775" lon="-1.6412393376"><ele>167.89</ele><time>2015-03-11T10:52:52Z</time></trkpt><trkpt lat="51.9427122921" lon="-1.6412305366"><ele>166.93</ele><time>2015-03-11T10:53:14Z</time></trkpt><trkpt lat="51.9426987134" lon="-1.6412275191"><ele>166.93</ele><time>2015-03-11T10:53:37Z</time></trkpt><trkpt lat="51.9426986296" lon="-1.6412209813"><ele>167.89</ele><time>2015-03-11T10:53:59Z</time></trkpt><trkpt lat="51.9426989648" lon="-1.6412157007"><ele>168.37</ele><time>2015-03-11T10:54:24Z</time></trkpt><trkpt lat="51.9427034911" lon="-1.6412138566"><ele>167.89</ele><time>2015-03-11T10:54:53Z</time></trkpt><trkpt lat="51.9427129626" lon="-1.6412364878"><ele>167.41</ele><time>2015-03-11T10:55:20Z</time></trkpt><trkpt lat="51.9427160639" lon="-1.6412421875"><ele>167.89</ele><time>2015-03-11T10:55:50Z</time></trkpt><trkpt lat="51.9427153096" lon="-1.6412462108"><ele>167.89</ele><time>2015-03-11T10:56:16Z</time></trkpt><trkpt lat="51.9427200034" lon="-1.6412468813"><ele>167.89</ele><time>2015-03-11T10:56:42Z</time></trkpt><trkpt lat="51.9427222665" lon="-1.6412420198"><ele>167.41</ele><time>2015-03-11T10:57:15Z</time></trkpt><trkpt lat="51.9427253678" lon="-1.6412465461"><ele>168.37</ele><time>2015-03-11T10:57:37Z</time></trkpt><trkpt lat="51.9427232724" lon="-1.6412400082"><ele>167.89</ele><time>2015-03-11T10:58:05Z</time></trkpt><trkpt lat="51.9427252002" lon="-1.6412396729"><ele>167.41</ele><time>2015-03-11T10:58:39Z</time></trkpt><trkpt lat="51.9427273795" lon="-1.6412367392"><ele>167.89</ele><time>2015-03-11T10:59:00Z</time></trkpt><trkpt lat="51.9427298103" lon="-1.6412311234"><ele>168.85</ele><time>2015-03-11T10:59:31Z</time></trkpt><trkpt lat="51.9427273795" lon="-1.6412255913"><ele>168.37</ele><time>2015-03-11T11:00:00Z</time></trkpt><trkpt lat="51.9427275471" lon="-1.6412151977"><ele>168.85</ele><time>2015-03-11T11:00:29Z</time></trkpt><trkpt lat="51.9427282177" lon="-1.6412353981"><ele>167.89</ele><time>2015-03-11T11:00:56Z</time></trkpt><trkpt lat="51.9427192491" lon="-1.6412419360"><ele>167.41</ele><time>2015-03-11T11:01:12Z</time></trkpt><trkpt lat="51.9427282177" lon="-1.6412292793"><ele>167.89</ele><time>2015-03-11T11:01:22Z</time></trkpt><trkpt lat="51.9427638408" lon="-1.6411887947"><ele>168.37</ele><time>2015-03-11T11:01:36Z</time></trkpt><trkpt lat="51.9427520223" lon="-1.6411924828"><ele>168.85</ele><time>2015-03-11T11:02:11Z</time></trkpt><trkpt lat="51.9427385274" lon="-1.6411928181"><ele>168.85</ele><time>2015-03-11T11:02:36Z</time></trkpt><trkpt lat="51.9427433889" lon="-1.6411869507"><ele>168.85</ele><time>2015-03-11T11:02:58Z</time></trkpt><trkpt lat="51.9427397847" lon="-1.6411872022"><ele>168.37</ele><time>2015-03-11T11:03:18Z</time></trkpt><trkpt lat="51.9427451491" lon="-1.6411936563"><ele>167.89</ele><time>2015-03-11T11:03:40Z</time></trkpt><trkpt lat="51.9427481666" lon="-1.6411929019"><ele>168.37</ele><time>2015-03-11T11:04:04Z</time></trkpt><trkpt lat="51.9427542854" lon="-1.6412050556"><ele>168.85</ele><time>2015-03-11T11:04:30Z</time></trkpt><trkpt lat="51.9427565485" lon="-1.6412181314"><ele>168.85</ele><time>2015-03-11T11:04:49Z</time></trkpt><trkpt lat="51.9427647628" lon="-1.6412411816"><ele>169.33</ele><time>2015-03-11T11:05:10Z</time></trkpt><trkpt lat="51.9427372701" lon="-1.6412369907"><ele>168.85</ele><time>2015-03-11T11:05:25Z</time></trkpt><trkpt lat="51.9427297264" lon="-1.6412372421"><ele>168.85</ele><time>2015-03-11T11:05:44Z</time></trkpt><trkpt lat="51.9427235238" lon="-1.6412338894"><ele>167.89</ele><time>2015-03-11T11:06:11Z</time></trkpt><trkpt lat="51.9427289721" lon="-1.6412525810"><ele>167.89</ele><time>2015-03-11T11:06:41Z</time></trkpt><trkpt lat="51.9427264575" lon="-1.6412394214"><ele>167.89</ele><time>2015-03-11T11:07:11Z</time></trkpt><trkpt lat="51.9427246135" lon="-1.6412334703"><ele>167.89</ele><time>2015-03-11T11:07:40Z</time></trkpt><trkpt lat="51.9427130464" lon="-1.6412237473"><ele>168.37</ele><time>2015-03-11T11:07:58Z</time></trkpt><trkpt lat="51.9427104481" lon="-1.6412170418"><ele>168.85</ele><time>2015-03-11T11:08:02Z</time></trkpt><trkpt lat="51.9426921755" lon="-1.6412186343"><ele>168.85</ele><time>2015-03-11T11:08:05Z</time></trkpt><trkpt lat="51.9426055904" lon="-1.6412183829"><ele>169.33</ele><time>2015-03-11T11:08:13Z</time></trkpt><trkpt lat="51.9425465818" lon="-1.6411794070"><ele>169.81</ele><time>2015-03-11T11:08:18Z</time></trkpt><trkpt lat="51.9424549676" lon="-1.6411100049"><ele>169.81</ele><time>2015-03-11T11:08:24Z</time></trkpt><trkpt lat="51.9423450809" lon="-1.6410326399"><ele>170.77</ele><time>2015-03-11T11:08:32Z</time></trkpt><trkpt lat="51.9421818014" lon="-1.6409229208"><ele>171.25</ele><time>2015-03-11T11:08:45Z</time></trkpt><trkpt lat="51.9419897720" lon="-1.6408075020"><ele>172.69</ele><time>2015-03-11T11:08:59Z</time></trkpt><trkpt lat="51.9418154284" lon="-1.6406417917"><ele>173.17</ele><time>2015-03-11T11:09:12Z</time></trkpt><trkpt lat="51.9417902827" lon="-1.6406174004"><ele>173.66</ele><time>2015-03-11T11:09:14Z</time></trkpt><trkpt lat="51.9417477027" lon="-1.6405897401"><ele>174.62</ele><time>2015-03-11T11:09:18Z</time></trkpt><trkpt lat="51.9416356366" lon="-1.6404675320"><ele>176.06</ele><time>2015-03-11T11:09:30Z</time></trkpt><trkpt lat="51.9415482134" lon="-1.6403615009"><ele>176.54</ele><time>2015-03-11T11:09:40Z</time></trkpt><trkpt lat="51.9414811581" lon="-1.6402735747"><ele>176.06</ele><time>2015-03-11T11:09:47Z</time></trkpt><trkpt lat="51.9414411765" lon="-1.6402247082"><ele>176.54</ele><time>2015-03-11T11:09:50Z</time></trkpt><trkpt lat="51.9413201418" lon="-1.6400213633"><ele>178.46</ele><time>2015-03-11T11:10:02Z</time></trkpt><trkpt lat="51.9413137715" lon="-1.6400084551"><ele>178.46</ele><time>2015-03-11T11:10:03Z</time></trkpt><trkpt lat="51.9412904698" lon="-1.6399625223"><ele>178.94</ele><time>2015-03-11T11:10:06Z</time></trkpt><trkpt lat="51.9412245043" lon="-1.6398498695"><ele>178.94</ele><time>2015-03-11T11:10:13Z</time></trkpt><trkpt lat="51.9411219936" lon="-1.6397098079"><ele>179.42</ele><time>2015-03-11T11:10:21Z</time></trkpt><trkpt lat="51.9410537649" lon="-1.6396167688"><ele>179.90</ele><time>2015-03-11T11:10:27Z</time></trkpt><trkpt lat="51.9409712870" lon="-1.6394059639"><ele>180.87</ele><time>2015-03-11T11:10:37Z</time></trkpt><trkpt lat="51.9408605620" lon="-1.6392410081"><ele>179.90</ele><time>2015-03-11T11:10:48Z</time></trkpt><trkpt lat="51.9407843705" lon="-1.6391352285"><ele>180.38</ele><time>2015-03-11T11:10:54Z</time></trkpt><trkpt lat="51.9407461490" lon="-1.6390441172"><ele>181.83</ele><time>2015-03-11T11:10:59Z</time></trkpt><trkpt lat="51.9406676106" lon="-1.6389010381"><ele>181.35</ele><time>2015-03-11T11:11:07Z</time></trkpt><trkpt lat="51.9405878149" lon="-1.6387489904"><ele>181.35</ele><time>2015-03-11T11:11:16Z</time></trkpt><trkpt lat="51.9405065104" lon="-1.6385744791"><ele>181.83</ele><time>2015-03-11T11:11:25Z</time></trkpt><trkpt lat="51.9403806143" lon="-1.6383178253"><ele>182.31</ele><time>2015-03-11T11:11:40Z</time></trkpt><trkpt lat="51.9403552171" lon="-1.6382633429"><ele>183.27</ele><time>2015-03-11T11:11:45Z</time></trkpt><trkpt lat="51.9402137306" lon="-1.6380563937"><ele>182.31</ele><time>2015-03-11T11:12:00Z</time></trkpt><trkpt lat="51.9402098749" lon="-1.6380218603"><ele>182.31</ele><time>2015-03-11T11:12:14Z</time></trkpt><trkpt lat="51.9402165804" lon="-1.6379353590"><ele>181.83</ele><time>2015-03-11T11:12:29Z</time></trkpt><trkpt lat="51.9402175024" lon="-1.6379201040"><ele>182.31</ele><time>2015-03-11T11:12:30Z</time></trkpt><trkpt lat="51.9402321707" lon="-1.6378422361"><ele>182.79</ele><time>2015-03-11T11:12:34Z</time></trkpt><trkpt lat="51.9402986392" lon="-1.6375241429"><ele>184.71</ele><time>2015-03-11T11:12:48Z</time></trkpt><trkpt lat="51.9402993098" lon="-1.6374299303"><ele>185.67</ele><time>2015-03-11T11:13:03Z</time></trkpt><trkpt lat="51.9402793609" lon="-1.6373856738"><ele>185.67</ele><time>2015-03-11T11:13:08Z</time></trkpt><trkpt lat="51.9401485194" lon="-1.6371254157"><ele>184.71</ele><time>2015-03-11T11:13:24Z</time></trkpt><trkpt lat="51.9400942046" lon="-1.6369151976"><ele>184.23</ele><time>2015-03-11T11:13:40Z</time></trkpt><trkpt lat="51.9400369562" lon="-1.6367623955"><ele>184.23</ele><time>2015-03-11T11:13:48Z</time></trkpt><trkpt lat="51.9399663806" lon="-1.6366507486"><ele>185.67</ele><time>2015-03-11T11:14:01Z</time></trkpt><trkpt lat="51.9398799632" lon="-1.6366762295"><ele>184.71</ele><time>2015-03-11T11:14:17Z</time></trkpt><trkpt lat="51.9398194458" lon="-1.6366873775"><ele>184.23</ele><time>2015-03-11T11:14:23Z</time></trkpt><trkpt lat="51.9397031888" lon="-1.6367118526"><ele>183.27</ele><time>2015-03-11T11:14:35Z</time></trkpt><trkpt lat="51.9396491256" lon="-1.6367067397"><ele>182.79</ele><time>2015-03-11T11:14:40Z</time></trkpt><trkpt lat="51.9395001791" lon="-1.6367617249"><ele>181.83</ele><time>2015-03-11T11:14:54Z</time></trkpt><trkpt lat="51.9394828286" lon="-1.6367672570"><ele>181.83</ele><time>2015-03-11T11:14:56Z</time></trkpt><trkpt lat="51.9393560104" lon="-1.6366649978"><ele>180.87</ele><time>2015-03-11T11:15:10Z</time></trkpt><trkpt lat="51.9393333793" lon="-1.6366098449"><ele>181.35</ele><time>2015-03-11T11:15:23Z</time></trkpt><trkpt lat="51.9393215608" lon="-1.6366074979"><ele>181.83</ele><time>2015-03-11T11:15:40Z</time></trkpt><trkpt lat="51.9393191300" lon="-1.6366074979"><ele>181.35</ele><time>2015-03-11T11:16:01Z</time></trkpt><trkpt lat="51.9393130951" lon="-1.6366047319"><ele>182.31</ele><time>2015-03-11T11:16:10Z</time></trkpt><trkpt lat="51.9392764661" lon="-1.6365224216"><ele>182.31</ele><time>2015-03-11T11:16:15Z</time></trkpt><trkpt lat="51.9392447826" lon="-1.6364457272"><ele>180.87</ele><time>2015-03-11T11:16:20Z</time></trkpt><trkpt lat="51.9392296113" lon="-1.6364102717"><ele>181.35</ele><time>2015-03-11T11:16:22Z</time></trkpt><trkpt lat="51.9391493127" lon="-1.6363754030"><ele>180.87</ele><time>2015-03-11T11:16:33Z</time></trkpt><trkpt lat="51.9391480554" lon="-1.6363840364"><ele>181.83</ele><time>2015-03-11T11:16:42Z</time></trkpt><trkpt lat="51.9391048048" lon="-1.6363251116"><ele>181.35</ele><time>2015-03-11T11:16:47Z</time></trkpt><trkpt lat="51.9390210696" lon="-1.6361484211"><ele>181.83</ele><time>2015-03-11T11:16:56Z</time></trkpt><trkpt lat="51.9390105084" lon="-1.6360980459"><ele>180.38</ele><time>2015-03-11T11:16:59Z</time></trkpt><trkpt lat="51.9389125239" lon="-1.6359250434"><ele>180.38</ele><time>2015-03-11T11:17:09Z</time></trkpt><trkpt lat="51.9388965983" lon="-1.6358686332"><ele>181.35</ele><time>2015-03-11T11:17:12Z</time></trkpt><trkpt lat="51.9387800060" lon="-1.6356728319"><ele>179.42</ele><time>2015-03-11T11:17:24Z</time></trkpt><trkpt lat="51.9387687743" lon="-1.6356612649"><ele>181.35</ele><time>2015-03-11T11:17:35Z</time></trkpt><trkpt lat="51.9387698639" lon="-1.6356681380"><ele>180.87</ele><time>2015-03-11T11:17:58Z</time></trkpt><trkpt lat="51.9387749769" lon="-1.6356735025"><ele>180.38</ele><time>2015-03-11T11:18:19Z</time></trkpt><trkpt lat="51.9387759827" lon="-1.6356539726"><ele>181.35</ele><time>2015-03-11T11:18:29Z</time></trkpt><trkpt lat="51.9387517590" lon="-1.6356237978"><ele>181.35</ele><time>2015-03-11T11:18:32Z</time></trkpt><trkpt lat="51.9387218356" lon="-1.6354704089"><ele>180.38</ele><time>2015-03-11T11:18:42Z</time></trkpt><trkpt lat="51.9386756513" lon="-1.6353742685"><ele>181.35</ele><time>2015-03-11T11:18:49Z</time></trkpt><trkpt lat="51.9386242703" lon="-1.6352634598"><ele>179.90</ele><time>2015-03-11T11:18:59Z</time></trkpt><trkpt lat="51.9385558739" lon="-1.6351509746"><ele>178.94</ele><time>2015-03-11T11:19:11Z</time></trkpt><trkpt lat="51.9385584723" lon="-1.6351614520"><ele>179.90</ele><time>2015-03-11T11:19:40Z</time></trkpt><trkpt lat="51.9385485817" lon="-1.6351577640"><ele>179.42</ele><time>2015-03-11T11:20:03Z</time></trkpt><trkpt lat="51.9385630824" lon="-1.6350839194"><ele>179.42</ele><time>2015-03-11T11:20:29Z</time></trkpt><trkpt lat="51.9386071712" lon="-1.6349192988"><ele>180.38</ele><time>2015-03-11T11:20:42Z</time></trkpt><trkpt lat="51.9386270363" lon="-1.6348927282"><ele>180.87</ele><time>2015-03-11T11:20:45Z</time></trkpt><trkpt lat="51.9386574626" lon="-1.6348485555"><ele>180.38</ele><time>2015-03-11T11:20:59Z</time></trkpt><trkpt lat="51.9386624917" lon="-1.6348466277"><ele>181.35</ele><time>2015-03-11T11:21:10Z</time></trkpt><trkpt lat="51.9386460632" lon="-1.6348361503"><ele>181.35</ele><time>2015-03-11T11:21:22Z</time></trkpt><trkpt lat="51.9386461470" lon="-1.6348271817"><ele>180.87</ele><time>2015-03-11T11:21:32Z</time></trkpt><trkpt lat="51.9386373460" lon="-1.6348274332"><ele>180.87</ele><time>2015-03-11T11:21:47Z</time></trkpt><trkpt lat="51.9386729691" lon="-1.6347758006"><ele>181.35</ele><time>2015-03-11T11:21:52Z</time></trkpt><trkpt lat="51.9387105200" lon="-1.6346939933"><ele>181.83</ele><time>2015-03-11T11:21:58Z</time></trkpt><trkpt lat="51.9387297984" lon="-1.6345669236"><ele>181.83</ele><time>2015-03-11T11:22:06Z</time></trkpt><trkpt lat="51.9387688581" lon="-1.6344235931"><ele>182.31</ele><time>2015-03-11T11:22:15Z</time></trkpt><trkpt lat="51.9387833588" lon="-1.6343772411"><ele>182.79</ele><time>2015-03-11T11:22:19Z</time></trkpt><trkpt lat="51.9388059061" lon="-1.6342900693"><ele>182.79</ele><time>2015-03-11T11:22:25Z</time></trkpt><trkpt lat="51.9388134498" lon="-1.6342368443"><ele>182.79</ele><time>2015-03-11T11:22:28Z</time></trkpt><trkpt lat="51.9388271961" lon="-1.6342029814"><ele>182.79</ele><time>2015-03-11T11:22:30Z</time></trkpt><trkpt lat="51.9388533477" lon="-1.6340216808"><ele>183.75</ele><time>2015-03-11T11:22:38Z</time></trkpt><trkpt lat="51.9388985261" lon="-1.6337677930"><ele>183.75</ele><time>2015-03-11T11:22:55Z</time></trkpt><trkpt lat="51.9389220793" lon="-1.6336427350"><ele>183.27</ele><time>2015-03-11T11:23:07Z</time></trkpt><trkpt lat="51.9389493205" lon="-1.6334836464"><ele>183.75</ele><time>2015-03-11T11:23:16Z</time></trkpt><trkpt lat="51.9389927387" lon="-1.6332886834"><ele>184.23</ele><time>2015-03-11T11:23:28Z</time></trkpt><trkpt lat="51.9390378334" lon="-1.6330943909"><ele>184.23</ele><time>2015-03-11T11:23:40Z</time></trkpt><trkpt lat="51.9390871190" lon="-1.6329224780"><ele>184.71</ele><time>2015-03-11T11:23:52Z</time></trkpt><trkpt lat="51.9390949141" lon="-1.6328788921"><ele>185.19</ele><time>2015-03-11T11:24:08Z</time></trkpt><trkpt lat="51.9391069002" lon="-1.6328157764"><ele>185.19</ele><time>2015-03-11T11:24:17Z</time></trkpt><trkpt lat="51.9391321298" lon="-1.6325976793"><ele>185.19</ele><time>2015-03-11T11:24:29Z</time></trkpt><trkpt lat="51.9391602930" lon="-1.6323638242"><ele>186.15</ele><time>2015-03-11T11:24:42Z</time></trkpt><trkpt lat="51.9391627237" lon="-1.6323481500"><ele>185.67</ele><time>2015-03-11T11:24:43Z</time></trkpt><trkpt lat="51.9391695969" lon="-1.6322266962"><ele>186.63</ele><time>2015-03-11T11:24:49Z</time></trkpt><trkpt lat="51.9392006099" lon="-1.6319690365"><ele>185.67</ele><time>2015-03-11T11:25:04Z</time></trkpt><trkpt lat="51.9392157812" lon="-1.6317950282"><ele>186.63</ele><time>2015-03-11T11:25:14Z</time></trkpt><trkpt lat="51.9392266776" lon="-1.6317177471"><ele>186.15</ele><time>2015-03-11T11:25:18Z</time></trkpt><trkpt lat="51.9392565172" lon="-1.6315068584"><ele>187.59</ele><time>2015-03-11T11:25:30Z</time></trkpt><trkpt lat="51.9392583612" lon="-1.6314719897"><ele>186.63</ele><time>2015-03-11T11:25:32Z</time></trkpt><trkpt lat="51.9392650668" lon="-1.6314207762"><ele>187.59</ele><time>2015-03-11T11:25:35Z</time></trkpt><trkpt lat="51.9392862730" lon="-1.6311729234"><ele>187.11</ele><time>2015-03-11T11:25:48Z</time></trkpt><trkpt lat="51.9393276796" lon="-1.6309105698"><ele>187.11</ele><time>2015-03-11T11:26:02Z</time></trkpt><trkpt lat="51.9393389951" lon="-1.6308240686"><ele>188.08</ele><time>2015-03-11T11:26:13Z</time></trkpt><trkpt lat="51.9393470418" lon="-1.6307643894"><ele>187.59</ele><time>2015-03-11T11:26:35Z</time></trkpt><trkpt lat="51.9393492211" lon="-1.6306539159"><ele>187.59</ele><time>2015-03-11T11:26:41Z</time></trkpt><trkpt lat="51.9393486343" lon="-1.6305685882"><ele>187.59</ele><time>2015-03-11T11:26:44Z</time></trkpt><trkpt lat="51.9393589441" lon="-1.6304659098"><ele>187.59</ele><time>2015-03-11T11:26:48Z</time></trkpt><trkpt lat="51.9393628836" lon="-1.6303741280"><ele>187.11</ele><time>2015-03-11T11:26:53Z</time></trkpt><trkpt lat="51.9393381570" lon="-1.6300834436"><ele>187.11</ele><time>2015-03-11T11:27:08Z</time></trkpt><trkpt lat="51.9393555913" lon="-1.6301579587"><ele>187.59</ele><time>2015-03-11T11:27:24Z</time></trkpt><trkpt lat="51.9393332116" lon="-1.6300883051"><ele>186.15</ele><time>2015-03-11T11:27:47Z</time></trkpt><trkpt lat="51.9393346366" lon="-1.6300509218"><ele>186.15</ele><time>2015-03-11T11:27:49Z</time></trkpt><trkpt lat="51.9392986782" lon="-1.6298739798"><ele>186.15</ele><time>2015-03-11T11:28:01Z</time></trkpt><trkpt lat="51.9391747937" lon="-1.6296124645"><ele>186.15</ele><time>2015-03-11T11:28:12Z</time></trkpt><trkpt lat="51.9391251728" lon="-1.6294627637"><ele>186.63</ele><time>2015-03-11T11:28:26Z</time></trkpt><trkpt lat="51.9390818384" lon="-1.6293646954"><ele>186.63</ele><time>2015-03-11T11:28:40Z</time></trkpt><trkpt lat="51.9390182197" lon="-1.6291940399"><ele>187.59</ele><time>2015-03-11T11:28:52Z</time></trkpt><trkpt lat="51.9389613066" lon="-1.6290781181"><ele>186.63</ele><time>2015-03-11T11:29:04Z</time></trkpt><trkpt lat="51.9388836063" lon="-1.6289244778"><ele>186.63</ele><time>2015-03-11T11:29:18Z</time></trkpt><trkpt lat="51.9387555309" lon="-1.6287462786"><ele>186.63</ele><time>2015-03-11T11:29:30Z</time></trkpt><trkpt lat="51.9386370946" lon="-1.6285478789"><ele>186.15</ele><time>2015-03-11T11:29:44Z</time></trkpt><trkpt lat="51.9385056663" lon="-1.6283855215"><ele>186.15</ele><time>2015-03-11T11:29:58Z</time></trkpt><trkpt lat="51.9384179078" lon="-1.6282474715"><ele>186.15</ele><time>2015-03-11T11:30:09Z</time></trkpt><trkpt lat="51.9383935165" lon="-1.6282726172"><ele>185.67</ele><time>2015-03-11T11:30:24Z</time></trkpt><trkpt lat="51.9383932650" lon="-1.6282715276"><ele>186.15</ele><time>2015-03-11T11:30:25Z</time></trkpt><trkpt lat="51.9383295625" lon="-1.6283804085"><ele>184.71</ele><time>2015-03-11T11:30:39Z</time></trkpt><trkpt lat="51.9383411296" lon="-1.6283734515"><ele>185.19</ele><time>2015-03-11T11:30:57Z</time></trkpt><trkpt lat="51.9383728970" lon="-1.6283084918"><ele>185.19</ele><time>2015-03-11T11:31:02Z</time></trkpt><trkpt lat="51.9383604918" lon="-1.6282538418"><ele>185.19</ele><time>2015-03-11T11:31:06Z</time></trkpt><trkpt lat="51.9382495992" lon="-1.6280960105"><ele>185.19</ele><time>2015-03-11T11:31:16Z</time></trkpt><trkpt lat="51.9381506927" lon="-1.6278914921"><ele>184.71</ele><time>2015-03-11T11:31:30Z</time></trkpt><trkpt lat="51.9380454998" lon="-1.6276475787"><ele>185.67</ele><time>2015-03-11T11:31:41Z</time></trkpt><trkpt lat="51.9379506167" lon="-1.6274142265"><ele>185.67</ele><time>2015-03-11T11:31:51Z</time></trkpt><trkpt lat="51.9378616009" lon="-1.6271242127"><ele>185.67</ele><time>2015-03-11T11:32:07Z</time></trkpt><trkpt lat="51.9378286600" lon="-1.6270875838"><ele>185.67</ele><time>2015-03-11T11:32:22Z</time></trkpt><trkpt lat="51.9377683941" lon="-1.6270023398"><ele>186.63</ele><time>2015-03-11T11:32:33Z</time></trkpt><trkpt lat="51.9377384707" lon="-1.6269489471"><ele>185.67</ele><time>2015-03-11T11:32:37Z</time></trkpt><trkpt lat="51.9377124030" lon="-1.6269131564"><ele>186.63</ele><time>2015-03-11T11:32:46Z</time></trkpt><trkpt lat="51.9377001654" lon="-1.6268408205"><ele>186.63</ele><time>2015-03-11T11:32:50Z</time></trkpt><trkpt lat="51.9377050269" lon="-1.6267362982"><ele>187.59</ele><time>2015-03-11T11:33:01Z</time></trkpt><trkpt lat="51.9377042726" lon="-1.6267503798"><ele>186.63</ele><time>2015-03-11T11:33:19Z</time></trkpt><trkpt lat="51.9376870058" lon="-1.6267108172"><ele>186.63</ele><time>2015-03-11T11:33:26Z</time></trkpt><trkpt lat="51.9376446772" lon="-1.6266091447"><ele>186.63</ele><time>2015-03-11T11:33:33Z</time></trkpt><trkpt lat="51.9376100600" lon="-1.6265256610"><ele>186.63</ele><time>2015-03-11T11:33:38Z</time></trkpt><trkpt lat="51.9375976548" lon="-1.6264945641"><ele>187.11</ele><time>2015-03-11T11:33:40Z</time></trkpt><trkpt lat="51.9375312701" lon="-1.6262730304"><ele>187.11</ele><time>2015-03-11T11:33:53Z</time></trkpt><trkpt lat="51.9374368060" lon="-1.6260684282"><ele>186.63</ele><time>2015-03-11T11:34:07Z</time></trkpt><trkpt lat="51.9372934755" lon="-1.6261328012"><ele>186.63</ele><time>2015-03-11T11:34:20Z</time></trkpt><trkpt lat="51.9371785596" lon="-1.6262286063"><ele>186.15</ele><time>2015-03-11T11:34:33Z</time></trkpt><trkpt lat="51.9371212274" lon="-1.6262888722"><ele>185.67</ele><time>2015-03-11T11:34:39Z</time></trkpt><trkpt lat="51.9369926490" lon="-1.6264462005"><ele>185.19</ele><time>2015-03-11T11:34:51Z</time></trkpt><trkpt lat="51.9368967600" lon="-1.6265679058"><ele>184.23</ele><time>2015-03-11T11:35:02Z</time></trkpt><trkpt lat="51.9368338957" lon="-1.6266321950"><ele>183.75</ele><time>2015-03-11T11:35:15Z</time></trkpt><trkpt lat="51.9368318841" lon="-1.6266802233"><ele>183.75</ele><time>2015-03-11T11:35:31Z</time></trkpt><trkpt lat="51.9368211553" lon="-1.6266863421"><ele>184.23</ele><time>2015-03-11T11:35:36Z</time></trkpt><trkpt lat="51.9367976021" lon="-1.6266991664"><ele>183.75</ele><time>2015-03-11T11:35:39Z</time></trkpt><trkpt lat="51.9367193989" lon="-1.6267898586"><ele>183.27</ele><time>2015-03-11T11:35:50Z</time></trkpt><trkpt lat="51.9366634078" lon="-1.6268388927"><ele>182.79</ele><time>2015-03-11T11:35:57Z</time></trkpt><trkpt lat="51.9366015494" lon="-1.6268993262"><ele>181.35</ele><time>2015-03-11T11:36:04Z</time></trkpt><trkpt lat="51.9365308899" lon="-1.6269960534"><ele>180.87</ele><time>2015-03-11T11:36:14Z</time></trkpt><trkpt lat="51.9364003837" lon="-1.6271366179"><ele>181.35</ele><time>2015-03-11T11:36:28Z</time></trkpt><trkpt lat="51.9363253657" lon="-1.6272167489"><ele>179.90</ele><time>2015-03-11T11:36:36Z</time></trkpt><trkpt lat="51.9362764992" lon="-1.6272725724"><ele>179.42</ele><time>2015-03-11T11:36:41Z</time></trkpt><trkpt lat="51.9361300673" lon="-1.6274287272"><ele>178.94</ele><time>2015-03-11T11:36:55Z</time></trkpt><trkpt lat="51.9360786863" lon="-1.6274856403"><ele>177.50</ele><time>2015-03-11T11:37:01Z</time></trkpt><trkpt lat="51.9359545503" lon="-1.6275855526"><ele>177.50</ele><time>2015-03-11T11:37:12Z</time></trkpt><trkpt lat="51.9358243793" lon="-1.6276833694"><ele>176.06</ele><time>2015-03-11T11:37:23Z</time></trkpt><trkpt lat="51.9357943721" lon="-1.6277194954"><ele>176.06</ele><time>2015-03-11T11:37:28Z</time></trkpt><trkpt lat="51.9357445836" lon="-1.6277738940"><ele>176.06</ele><time>2015-03-11T11:37:41Z</time></trkpt><trkpt lat="51.9355828129" lon="-1.6278443020"><ele>175.10</ele><time>2015-03-11T11:37:56Z</time></trkpt><trkpt lat="51.9354528096" lon="-1.6279172245"><ele>174.14</ele><time>2015-03-11T11:38:08Z</time></trkpt><trkpt lat="51.9353259914" lon="-1.6279738024"><ele>173.17</ele><time>2015-03-11T11:38:19Z</time></trkpt><trkpt lat="51.9351906236" lon="-1.6280113533"><ele>174.14</ele><time>2015-03-11T11:38:32Z</time></trkpt><trkpt lat="51.9350557588" lon="-1.6280701943"><ele>173.66</ele><time>2015-03-11T11:38:46Z</time></trkpt><trkpt lat="51.9350372348" lon="-1.6280804202"><ele>174.14</ele><time>2015-03-11T11:39:07Z</time></trkpt><trkpt lat="51.9350042101" lon="-1.6280870419"><ele>173.66</ele><time>2015-03-11T11:39:10Z</time></trkpt><trkpt lat="51.9349159487" lon="-1.6281172168"><ele>173.66</ele><time>2015-03-11T11:39:18Z</time></trkpt><trkpt lat="51.9347938243" lon="-1.6281421948"><ele>174.14</ele><time>2015-03-11T11:39:30Z</time></trkpt><trkpt lat="51.9346749689" lon="-1.6281744651"><ele>174.62</ele><time>2015-03-11T11:39:40Z</time></trkpt><trkpt lat="51.9345340692" lon="-1.6282658279"><ele>175.10</ele><time>2015-03-11T11:39:54Z</time></trkpt><trkpt lat="51.9344805088" lon="-1.6283059772"><ele>174.14</ele><time>2015-03-11T11:40:06Z</time></trkpt><trkpt lat="51.9344649184" lon="-1.6283191368"><ele>175.10</ele><time>2015-03-11T11:40:18Z</time></trkpt><trkpt lat="51.9343619049" lon="-1.6282957513"><ele>174.62</ele><time>2015-03-11T11:40:34Z</time></trkpt><trkpt lat="51.9343332388" lon="-1.6282964218"><ele>174.62</ele><time>2015-03-11T11:40:39Z</time></trkpt><trkpt lat="51.9342491683" lon="-1.6283077374"><ele>174.14</ele><time>2015-03-11T11:40:53Z</time></trkpt><trkpt lat="51.9342037383" lon="-1.6283433605"><ele>174.62</ele><time>2015-03-11T11:41:00Z</time></trkpt><trkpt lat="51.9341586437" lon="-1.6283599567"><ele>173.66</ele><time>2015-03-11T11:41:05Z</time></trkpt><trkpt lat="51.9341200870" lon="-1.6283612978"><ele>174.14</ele><time>2015-03-11T11:41:13Z</time></trkpt><trkpt lat="51.9340983778" lon="-1.6283812467"><ele>173.66</ele><time>2015-03-11T11:41:16Z</time></trkpt><trkpt lat="51.9340304844" lon="-1.6283695959"><ele>173.66</ele><time>2015-03-11T11:41:22Z</time></trkpt><trkpt lat="51.9339903351" lon="-1.6283923946"><ele>172.69</ele><time>2015-03-11T11:41:26Z</time></trkpt><trkpt lat="51.9339537900" lon="-1.6284094937"><ele>172.69</ele><time>2015-03-11T11:41:30Z</time></trkpt><trkpt lat="51.9338525366" lon="-1.6284705140"><ele>172.21</ele><time>2015-03-11T11:41:40Z</time></trkpt><trkpt lat="51.9337498583" lon="-1.6285220627"><ele>171.73</ele><time>2015-03-11T11:41:49Z</time></trkpt><trkpt lat="51.9336342718" lon="-1.6285970807"><ele>170.77</ele><time>2015-03-11T11:42:00Z</time></trkpt><trkpt lat="51.9335271511" lon="-1.6286703385"><ele>171.25</ele><time>2015-03-11T11:42:13Z</time></trkpt><trkpt lat="51.9334802963" lon="-1.6286978312"><ele>170.77</ele><time>2015-03-11T11:42:17Z</time></trkpt><trkpt lat="51.9333140831" lon="-1.6288152616"><ele>169.81</ele><time>2015-03-11T11:42:31Z</time></trkpt><trkpt lat="51.9333061203" lon="-1.6288238112"><ele>169.33</ele><time>2015-03-11T11:42:32Z</time></trkpt><trkpt lat="51.9332270790" lon="-1.6289243102"><ele>167.89</ele><time>2015-03-11T11:42:40Z</time></trkpt><trkpt lat="51.9332190324" lon="-1.6290193610"><ele>166.93</ele><time>2015-03-11T11:42:45Z</time></trkpt><trkpt lat="51.9331540726" lon="-1.6292554792"><ele>167.89</ele><time>2015-03-11T11:42:59Z</time></trkpt><trkpt lat="51.9331355486" lon="-1.6293474287"><ele>167.41</ele><time>2015-03-11T11:43:04Z</time></trkpt><trkpt lat="51.9331047032" lon="-1.6295186710"><ele>166.45</ele><time>2015-03-11T11:43:14Z</time></trkpt><trkpt lat="51.9331002608" lon="-1.6295886599"><ele>165.96</ele><time>2015-03-11T11:43:18Z</time></trkpt><trkpt lat="51.9330873527" lon="-1.6297901608"><ele>165.00</ele><time>2015-03-11T11:43:29Z</time></trkpt><trkpt lat="51.9330874365" lon="-1.6298633348"><ele>165.00</ele><time>2015-03-11T11:43:33Z</time></trkpt><trkpt lat="51.9330829941" lon="-1.6300101019"><ele>164.52</ele><time>2015-03-11T11:43:41Z</time></trkpt><trkpt lat="51.9330873527" lon="-1.6301397700"><ele>164.04</ele><time>2015-03-11T11:43:48Z</time></trkpt><trkpt lat="51.9330850895" lon="-1.6303592082"><ele>162.60</ele><time>2015-03-11T11:44:00Z</time></trkpt><trkpt lat="51.9330775458" lon="-1.6305818316"><ele>162.12</ele><time>2015-03-11T11:44:12Z</time></trkpt><trkpt lat="51.9330752827" lon="-1.6307959892"><ele>161.64</ele><time>2015-03-11T11:44:25Z</time></trkpt><trkpt lat="51.9330653921" lon="-1.6307752021"><ele>162.60</ele><time>2015-03-11T11:44:39Z</time></trkpt><trkpt lat="51.9330680743" lon="-1.6307664011"><ele>162.12</ele><time>2015-03-11T11:45:02Z</time></trkpt><trkpt lat="51.9330710918" lon="-1.6307765432"><ele>161.64</ele><time>2015-03-11T11:45:06Z</time></trkpt><trkpt lat="51.9330542441" lon="-1.6308734380"><ele>161.16</ele><time>2015-03-11T11:45:13Z</time></trkpt><trkpt lat="51.9330482930" lon="-1.6309144255"><ele>161.16</ele><time>2015-03-11T11:45:15Z</time></trkpt><trkpt lat="51.9330492150" lon="-1.6311171837"><ele>160.20</ele><time>2015-03-11T11:45:25Z</time></trkpt><trkpt lat="51.9330400787" lon="-1.6311518010"><ele>159.72</ele><time>2015-03-11T11:45:27Z</time></trkpt><trkpt lat="51.9330309425" lon="-1.6313001607"><ele>159.72</ele><time>2015-03-11T11:45:36Z</time></trkpt><trkpt lat="51.9329566788" lon="-1.6314648651"><ele>158.75</ele><time>2015-03-11T11:45:46Z</time></trkpt><trkpt lat="51.9329242408" lon="-1.6315326747"><ele>158.75</ele><time>2015-03-11T11:45:50Z</time></trkpt><trkpt lat="51.9328987598" lon="-1.6315858159"><ele>159.24</ele><time>2015-03-11T11:45:53Z</time></trkpt><trkpt lat="51.9328153599" lon="-1.6317779291"><ele>158.75</ele><time>2015-03-11T11:46:05Z</time></trkpt><trkpt lat="51.9327333011" lon="-1.6319132131"><ele>158.75</ele><time>2015-03-11T11:46:16Z</time></trkpt><trkpt lat="51.9326849375" lon="-1.6319974512"><ele>157.79</ele><time>2015-03-11T11:46:22Z</time></trkpt><trkpt lat="51.9326459616" lon="-1.6321272869"><ele>157.31</ele><time>2015-03-11T11:46:31Z</time></trkpt><trkpt lat="51.9326197263" lon="-1.6321753990"><ele>157.31</ele><time>2015-03-11T11:46:34Z</time></trkpt><trkpt lat="51.9326047227" lon="-1.6322343238"><ele>157.31</ele><time>2015-03-11T11:46:38Z</time></trkpt><trkpt lat="51.9325148687" lon="-1.6324069072"><ele>156.35</ele><time>2015-03-11T11:46:51Z</time></trkpt><trkpt lat="51.9324359950" lon="-1.6325647384"><ele>155.39</ele><time>2015-03-11T11:47:03Z</time></trkpt><trkpt lat="51.9324293733" lon="-1.6325867828"><ele>155.87</ele><time>2015-03-11T11:47:05Z</time></trkpt><trkpt lat="51.9324126095" lon="-1.6326268483"><ele>155.39</ele><time>2015-03-11T11:47:08Z</time></trkpt><trkpt lat="51.9323218334" lon="-1.6327874456"><ele>154.43</ele><time>2015-03-11T11:47:20Z</time></trkpt><trkpt lat="51.9322287943" lon="-1.6329672374"><ele>153.95</ele><time>2015-03-11T11:47:33Z</time></trkpt><trkpt lat="51.9322202448" lon="-1.6330007650"><ele>154.43</ele><time>2015-03-11T11:47:37Z</time></trkpt><trkpt lat="51.9322158024" lon="-1.6330285929"><ele>153.47</ele><time>2015-03-11T11:47:40Z</time></trkpt><trkpt lat="51.9321856275" lon="-1.6330798902"><ele>152.99</ele><time>2015-03-11T11:47:44Z</time></trkpt><trkpt lat="51.9321530219" lon="-1.6331497952"><ele>152.03</ele><time>2015-03-11T11:47:49Z</time></trkpt><trkpt lat="51.9321453944" lon="-1.6331827361"><ele>152.51</ele><time>2015-03-11T11:47:51Z</time></trkpt><trkpt lat="51.9320435543" lon="-1.6333792079"><ele>151.06</ele><time>2015-03-11T11:48:05Z</time></trkpt><trkpt lat="51.9319357630" lon="-1.6335346084"><ele>150.58</ele><time>2015-03-11T11:48:18Z</time></trkpt><trkpt lat="51.9318323303" lon="-1.6336628515"><ele>149.62</ele><time>2015-03-11T11:48:30Z</time></trkpt><trkpt lat="51.9317721482" lon="-1.6337688826"><ele>148.18</ele><time>2015-03-11T11:48:42Z</time></trkpt><trkpt lat="51.9317524508" lon="-1.6337490175"><ele>148.66</ele><time>2015-03-11T11:48:57Z</time></trkpt><trkpt lat="51.9317529537" lon="-1.6337516997"><ele>148.66</ele><time>2015-03-11T11:48:58Z</time></trkpt><trkpt lat="51.9317566417" lon="-1.6339229420"><ele>147.22</ele><time>2015-03-11T11:49:10Z</time></trkpt><trkpt lat="51.9317441527" lon="-1.6341020633"><ele>146.26</ele><time>2015-03-11T11:49:16Z</time></trkpt><trkpt lat="51.9315982237" lon="-1.6343372595"><ele>144.34</ele><time>2015-03-11T11:49:31Z</time></trkpt><trkpt lat="51.9315458369" lon="-1.6344385967"><ele>142.89</ele><time>2015-03-11T11:49:39Z</time></trkpt><trkpt lat="51.9315176737" lon="-1.6344870441"><ele>141.93</ele><time>2015-03-11T11:49:43Z</time></trkpt><trkpt lat="51.9314294122" lon="-1.6346501559"><ele>140.49</ele><time>2015-03-11T11:49:55Z</time></trkpt><trkpt lat="51.9313713256" lon="-1.6347675864"><ele>139.53</ele><time>2015-03-11T11:50:02Z</time></trkpt><trkpt lat="51.9313003309" lon="-1.6349349730"><ele>137.13</ele><time>2015-03-11T11:50:15Z</time></trkpt><trkpt lat="51.9312955532" lon="-1.6349860188"><ele>136.64</ele><time>2015-03-11T11:50:24Z</time></trkpt><trkpt lat="51.9312922005" lon="-1.6349948198"><ele>137.13</ele><time>2015-03-11T11:50:26Z</time></trkpt><trkpt lat="51.9312036037" lon="-1.6351558361"><ele>134.72</ele><time>2015-03-11T11:50:38Z</time></trkpt><trkpt lat="51.9311533123" lon="-1.6352404095"><ele>133.28</ele><time>2015-03-11T11:50:47Z</time></trkpt><trkpt lat="51.9310060423" lon="-1.6354935430"><ele>131.36</ele><time>2015-03-11T11:51:01Z</time></trkpt><trkpt lat="51.9309405796" lon="-1.6356186010"><ele>129.92</ele><time>2015-03-11T11:51:13Z</time></trkpt><trkpt lat="51.9308956526" lon="-1.6357166693"><ele>130.40</ele><time>2015-03-11T11:51:27Z</time></trkpt><trkpt lat="51.9308341295" lon="-1.6358545516"><ele>130.40</ele><time>2015-03-11T11:51:38Z</time></trkpt><trkpt lat="51.9307866879" lon="-1.6359617561"><ele>129.43</ele><time>2015-03-11T11:51:45Z</time></trkpt><trkpt lat="51.9306516554" lon="-1.6361036617"><ele>129.43</ele><time>2015-03-11T11:51:57Z</time></trkpt><trkpt lat="51.9305176288" lon="-1.6362314858"><ele>129.43</ele><time>2015-03-11T11:52:10Z</time></trkpt><trkpt lat="51.9304428622" lon="-1.6363112815"><ele>129.43</ele><time>2015-03-11T11:52:19Z</time></trkpt><trkpt lat="51.9304140285" lon="-1.6363426298"><ele>129.43</ele><time>2015-03-11T11:52:23Z</time></trkpt><trkpt lat="51.9303871226" lon="-1.6363633331"><ele>129.92</ele><time>2015-03-11T11:52:26Z</time></trkpt><trkpt lat="51.9303564448" lon="-1.6363842040"><ele>128.95</ele><time>2015-03-11T11:52:29Z</time></trkpt><trkpt lat="51.9302546885" lon="-1.6365169734"><ele>129.43</ele><time>2015-03-11T11:52:41Z</time></trkpt><trkpt lat="51.9302410260" lon="-1.6365412809"><ele>130.40</ele><time>2015-03-11T11:52:44Z</time></trkpt><trkpt lat="51.9301171415" lon="-1.6366653331"><ele>129.43</ele><time>2015-03-11T11:52:57Z</time></trkpt><trkpt lat="51.9300080091" lon="-1.6368065681"><ele>129.92</ele><time>2015-03-11T11:53:08Z</time></trkpt><trkpt lat="51.9299320690" lon="-1.6369183827"><ele>128.95</ele><time>2015-03-11T11:53:16Z</time></trkpt><trkpt lat="51.9298189972" lon="-1.6370820813"><ele>129.92</ele><time>2015-03-11T11:53:30Z</time></trkpt><trkpt lat="51.9297252875" lon="-1.6372458637"><ele>128.47</ele><time>2015-03-11T11:53:42Z</time></trkpt><trkpt lat="51.9296553824" lon="-1.6373757832"><ele>129.92</ele><time>2015-03-11T11:53:52Z</time></trkpt><trkpt lat="51.9295739103" lon="-1.6375404038"><ele>129.92</ele><time>2015-03-11T11:54:04Z</time></trkpt><trkpt lat="51.9295485970" lon="-1.6375927068"><ele>129.43</ele><time>2015-03-11T11:54:07Z</time></trkpt><trkpt lat="51.9294547196" lon="-1.6377769411"><ele>129.43</ele><time>2015-03-11T11:54:20Z</time></trkpt><trkpt lat="51.9293705653" lon="-1.6379403044"><ele>128.95</ele><time>2015-03-11T11:54:31Z</time></trkpt><trkpt lat="51.9293120597" lon="-1.6380555555"><ele>128.95</ele><time>2015-03-11T11:54:39Z</time></trkpt><trkpt lat="51.9292947929" lon="-1.6380876582"><ele>128.95</ele><time>2015-03-11T11:54:41Z</time></trkpt><trkpt lat="51.9292535540" lon="-1.6381648555"><ele>128.47</ele><time>2015-03-11T11:54:46Z</time></trkpt><trkpt lat="51.9291439187" lon="-1.6383433063"><ele>128.47</ele><time>2015-03-11T11:54:59Z</time></trkpt><trkpt lat="51.9291171804" lon="-1.6383966152"><ele>127.03</ele><time>2015-03-11T11:55:03Z</time></trkpt><trkpt lat="51.9290226325" lon="-1.6385546979"><ele>128.47</ele><time>2015-03-11T11:55:16Z</time></trkpt><trkpt lat="51.9289427530" lon="-1.6387199890"><ele>128.95</ele><time>2015-03-11T11:55:28Z</time></trkpt><trkpt lat="51.9289518893" lon="-1.6387256049"><ele>128.95</ele><time>2015-03-11T11:55:44Z</time></trkpt><trkpt lat="51.9289368019" lon="-1.6387511697"><ele>128.47</ele><time>2015-03-11T11:56:02Z</time></trkpt><trkpt lat="51.9289199542" lon="-1.6387749743"><ele>127.99</ele><time>2015-03-11T11:56:04Z</time></trkpt><trkpt lat="51.9288679864" lon="-1.6387861222"><ele>128.95</ele><time>2015-03-11T11:56:18Z</time></trkpt><trkpt lat="51.9288721774" lon="-1.6387818474"><ele>128.95</ele><time>2015-03-11T11:56:35Z</time></trkpt><trkpt lat="51.9289101474" lon="-1.6387483198"><ele>128.95</ele><time>2015-03-11T11:56:47Z</time></trkpt><trkpt lat="51.9289545715" lon="-1.6387406085"><ele>128.95</ele><time>2015-03-11T11:57:01Z</time></trkpt><trkpt lat="51.9289618637" lon="-1.6387469787"><ele>128.95</ele><time>2015-03-11T11:57:16Z</time></trkpt><trkpt lat="51.9289565831" lon="-1.6387461405"><ele>128.47</ele><time>2015-03-11T11:57:17Z</time></trkpt><trkpt lat="51.9289220497" lon="-1.6388053168"><ele>127.99</ele><time>2015-03-11T11:57:22Z</time></trkpt><trkpt lat="51.9289185293" lon="-1.6388663370"><ele>128.47</ele><time>2015-03-11T11:57:25Z</time></trkpt><trkpt lat="51.9290107302" lon="-1.6391265113"><ele>129.43</ele><time>2015-03-11T11:57:38Z</time></trkpt><trkpt lat="51.9290579204" lon="-1.6392087378"><ele>129.43</ele><time>2015-03-11T11:57:43Z</time></trkpt><trkpt lat="51.9290766958" lon="-1.6392575204"><ele>129.43</ele><time>2015-03-11T11:57:46Z</time></trkpt><trkpt lat="51.9291511271" lon="-1.6394992545"><ele>129.43</ele><time>2015-03-11T11:57:59Z</time></trkpt><trkpt lat="51.9291871693" lon="-1.6396864224"><ele>129.43</ele><time>2015-03-11T11:58:09Z</time></trkpt><trkpt lat="51.9292161707" lon="-1.6398315970"><ele>129.43</ele><time>2015-03-11T11:58:17Z</time></trkpt><trkpt lat="51.9292668812" lon="-1.6400724929"><ele>129.43</ele><time>2015-03-11T11:58:32Z</time></trkpt><trkpt lat="51.9292774424" lon="-1.6401895881"><ele>128.95</ele><time>2015-03-11T11:58:42Z</time></trkpt><trkpt lat="51.9292761851" lon="-1.6402761731"><ele>128.95</ele><time>2015-03-11T11:58:47Z</time></trkpt><trkpt lat="51.9292889256" lon="-1.6403635126"><ele>128.95</ele><time>2015-03-11T11:58:52Z</time></trkpt><trkpt lat="51.9293319248" lon="-1.6405324917"><ele>128.95</ele><time>2015-03-11T11:59:02Z</time></trkpt><trkpt lat="51.9293842278" lon="-1.6407838650"><ele>127.51</ele><time>2015-03-11T11:59:18Z</time></trkpt><trkpt lat="51.9294068590" lon="-1.6409094259"><ele>127.03</ele><time>2015-03-11T11:59:25Z</time></trkpt><trkpt lat="51.9294030033" lon="-1.6410820093"><ele>127.03</ele><time>2015-03-11T11:59:34Z</time></trkpt><trkpt lat="51.9294146542" lon="-1.6411594581"><ele>127.03</ele><time>2015-03-11T11:59:47Z</time></trkpt><trkpt lat="51.9294312503" lon="-1.6411920637"><ele>126.07</ele><time>2015-03-11T11:59:53Z</time></trkpt><trkpt lat="51.9294345193" lon="-1.6412680037"><ele>127.03</ele><time>2015-03-11T11:59:57Z</time></trkpt><trkpt lat="51.9294540491" lon="-1.6415076423"><ele>126.55</ele><time>2015-03-11T12:00:12Z</time></trkpt><trkpt lat="51.9294496067" lon="-1.6415331233"><ele>126.55</ele><time>2015-03-11T12:00:24Z</time></trkpt><trkpt lat="51.9294459186" lon="-1.6416344605"><ele>125.59</ele><time>2015-03-11T12:00:33Z</time></trkpt><trkpt lat="51.9294693880" lon="-1.6417643800"><ele>126.07</ele><time>2015-03-11T12:00:41Z</time></trkpt><trkpt lat="51.9294728246" lon="-1.6418766975"><ele>125.59</ele><time>2015-03-11T12:00:47Z</time></trkpt><trkpt lat="51.9294931088" lon="-1.6421117261"><ele>125.59</ele><time>2015-03-11T12:01:00Z</time></trkpt><trkpt lat="51.9295228645" lon="-1.6423345171"><ele>126.55</ele><time>2015-03-11T12:01:14Z</time></trkpt><trkpt lat="51.9295404665" lon="-1.6425603256"><ele>126.55</ele><time>2015-03-11T12:01:27Z</time></trkpt><trkpt lat="51.9295634329" lon="-1.6427729744"><ele>126.55</ele><time>2015-03-11T12:01:39Z</time></trkpt><trkpt lat="51.9295660313" lon="-1.6428217571"><ele>126.55</ele><time>2015-03-11T12:01:42Z</time></trkpt><trkpt lat="51.9295917638" lon="-1.6430577915"><ele>127.03</ele><time>2015-03-11T12:01:57Z</time></trkpt><trkpt lat="51.9296072703" lon="-1.6432038881"><ele>127.51</ele><time>2015-03-11T12:02:05Z</time></trkpt><trkpt lat="51.9296112098" lon="-1.6432561073"><ele>127.51</ele><time>2015-03-11T12:02:08Z</time></trkpt><trkpt lat="51.9296257943" lon="-1.6434923094"><ele>127.51</ele><time>2015-03-11T12:02:23Z</time></trkpt><trkpt lat="51.9296397083" lon="-1.6435001045"><ele>127.03</ele><time>2015-03-11T12:02:36Z</time></trkpt><trkpt lat="51.9296324160" lon="-1.6435182933"><ele>126.07</ele><time>2015-03-11T12:02:45Z</time></trkpt><trkpt lat="51.9296428934" lon="-1.6436635517"><ele>127.03</ele><time>2015-03-11T12:02:56Z</time></trkpt><trkpt lat="51.9296542089" lon="-1.6438899469"><ele>126.55</ele><time>2015-03-11T12:03:09Z</time></trkpt><trkpt lat="51.9296532869" lon="-1.6439049505"><ele>126.07</ele><time>2015-03-11T12:03:10Z</time></trkpt><trkpt lat="51.9296533708" lon="-1.6439600196"><ele>127.03</ele><time>2015-03-11T12:03:13Z</time></trkpt><trkpt lat="51.9296953641" lon="-1.6442151647"><ele>126.55</ele><time>2015-03-11T12:03:28Z</time></trkpt><trkpt lat="51.9297190011" lon="-1.6444998980"><ele>126.07</ele><time>2015-03-11T12:03:43Z</time></trkpt><trkpt lat="51.9297628384" lon="-1.6446980461"><ele>125.11</ele><time>2015-03-11T12:03:55Z</time></trkpt><trkpt lat="51.9298153929" lon="-1.6449912451"><ele>125.11</ele><time>2015-03-11T12:04:13Z</time></trkpt><trkpt lat="51.9298614934" lon="-1.6452647466"><ele>124.15</ele><time>2015-03-11T12:04:30Z</time></trkpt><trkpt lat="51.9299314823" lon="-1.6455317941"><ele>125.11</ele><time>2015-03-11T12:04:46Z</time></trkpt><trkpt lat="51.9300087634" lon="-1.6457368992"><ele>123.67</ele><time>2015-03-11T12:04:59Z</time></trkpt><trkpt lat="51.9300313108" lon="-1.6458157729"><ele>123.19</ele><time>2015-03-11T12:05:05Z</time></trkpt><trkpt lat="51.9300494995" lon="-1.6458610352"><ele>123.67</ele><time>2015-03-11T12:05:08Z</time></trkpt><trkpt lat="51.9300790876" lon="-1.6459793039"><ele>122.71</ele><time>2015-03-11T12:05:21Z</time></trkpt><trkpt lat="51.9300764054" lon="-1.6460211296"><ele>122.71</ele><time>2015-03-11T12:05:26Z</time></trkpt><trkpt lat="51.9300733041" lon="-1.6460973211"><ele>122.22</ele><time>2015-03-11T12:05:34Z</time></trkpt><trkpt lat="51.9300771598" lon="-1.6461076308"><ele>124.15</ele><time>2015-03-11T12:05:38Z</time></trkpt><trkpt lat="51.9300724659" lon="-1.6461054515"><ele>124.15</ele><time>2015-03-11T12:05:42Z</time></trkpt><trkpt lat="51.9300511759" lon="-1.6461218800"><ele>124.15</ele><time>2015-03-11T12:05:47Z</time></trkpt><trkpt lat="51.9300329033" lon="-1.6461344529"><ele>121.74</ele><time>2015-03-11T12:05:49Z</time></trkpt><trkpt lat="51.9298994634" lon="-1.6463170107"><ele>123.19</ele><time>2015-03-11T12:06:03Z</time></trkpt><trkpt lat="51.9298045803" lon="-1.6464483552"><ele>124.15</ele><time>2015-03-11T12:06:15Z</time></trkpt><trkpt lat="51.9297190011" lon="-1.6465606727"><ele>122.22</ele><time>2015-03-11T12:06:25Z</time></trkpt><trkpt lat="51.9297034945" lon="-1.6465871595"><ele>123.19</ele><time>2015-03-11T12:06:27Z</time></trkpt><trkpt lat="51.9296516944" lon="-1.6466700565"><ele>123.19</ele><time>2015-03-11T12:06:33Z</time></trkpt><trkpt lat="51.9296226930" lon="-1.6467057634"><ele>123.19</ele><time>2015-03-11T12:06:36Z</time></trkpt><trkpt lat="51.9295733236" lon="-1.6467863973"><ele>122.71</ele><time>2015-03-11T12:06:43Z</time></trkpt><trkpt lat="51.9295012392" lon="-1.6468570568"><ele>122.22</ele><time>2015-03-11T12:06:50Z</time></trkpt><trkpt lat="51.9294827152" lon="-1.6468766704"><ele>123.19</ele><time>2015-03-11T12:06:52Z</time></trkpt><trkpt lat="51.9293807074" lon="-1.6470234375"><ele>122.22</ele><time>2015-03-11T12:07:04Z</time></trkpt><trkpt lat="51.9293731637" lon="-1.6470293049"><ele>122.22</ele><time>2015-03-11T12:07:05Z</time></trkpt><trkpt lat="51.9292922784" lon="-1.6471080948"><ele>121.26</ele><time>2015-03-11T12:07:13Z</time></trkpt><trkpt lat="51.9292077888" lon="-1.6471897345"><ele>121.74</ele><time>2015-03-11T12:07:21Z</time></trkpt><trkpt lat="51.9290534779" lon="-1.6473252699"><ele>121.74</ele><time>2015-03-11T12:07:36Z</time></trkpt><trkpt lat="51.9289301801" lon="-1.6474210750"><ele>121.74</ele><time>2015-03-11T12:07:48Z</time></trkpt><trkpt lat="51.9287888613" lon="-1.6475154553"><ele>120.30</ele><time>2015-03-11T12:08:01Z</time></trkpt><trkpt lat="51.9286762923" lon="-1.6475828458"><ele>120.78</ele><time>2015-03-11T12:08:12Z</time></trkpt><trkpt lat="51.9286685809" lon="-1.6475810856"><ele>119.82</ele><time>2015-03-11T12:08:13Z</time></trkpt><trkpt lat="51.9285110850" lon="-1.6476066504"><ele>119.82</ele><time>2015-03-11T12:08:29Z</time></trkpt><trkpt lat="51.9285112526" lon="-1.6476063989"><ele>120.78</ele><time>2015-03-11T12:08:30Z</time></trkpt><trkpt lat="51.9284718577" lon="-1.6476254258"><ele>119.82</ele><time>2015-03-11T12:08:41Z</time></trkpt><trkpt lat="51.9284783956" lon="-1.6477611288"><ele>119.82</ele><time>2015-03-11T12:08:48Z</time></trkpt><trkpt lat="51.9284732826" lon="-1.6478343029"><ele>119.34</ele><time>2015-03-11T12:08:52Z</time></trkpt><trkpt lat="51.9284119271" lon="-1.6480240691"><ele>121.26</ele><time>2015-03-11T12:09:07Z</time></trkpt><trkpt lat="51.9283851888" lon="-1.6480922140"><ele>122.71</ele><time>2015-03-11T12:09:13Z</time></trkpt><trkpt lat="51.9283113442" lon="-1.6481980775"><ele>123.19</ele><time>2015-03-11T12:09:27Z</time></trkpt><trkpt lat="51.9283099193" lon="-1.6481972393"><ele>122.22</ele><time>2015-03-11T12:09:30Z</time></trkpt><trkpt lat="51.9282525033" lon="-1.6482756939"><ele>123.19</ele><time>2015-03-11T12:09:44Z</time></trkpt><trkpt lat="51.9282519165" lon="-1.6482819803"><ele>122.71</ele><time>2015-03-11T12:09:48Z</time></trkpt><trkpt lat="51.9281803351" lon="-1.6484567430"><ele>120.78</ele><time>2015-03-11T12:09:59Z</time></trkpt><trkpt lat="51.9280341547" lon="-1.6486072820"><ele>118.86</ele><time>2015-03-11T12:10:15Z</time></trkpt><trkpt lat="51.9279134553" lon="-1.6487035062"><ele>116.94</ele><time>2015-03-11T12:10:29Z</time></trkpt><trkpt lat="51.9278401975" lon="-1.6487630177"><ele>115.98</ele><time>2015-03-11T12:10:36Z</time></trkpt><trkpt lat="51.9277470745" lon="-1.6488323361"><ele>114.53</ele><time>2015-03-11T12:10:45Z</time></trkpt><trkpt lat="51.9277242757" lon="-1.6488418076"><ele>113.09</ele><time>2015-03-11T12:10:47Z</time></trkpt><trkpt lat="51.9277113676" lon="-1.6488636006"><ele>115.50</ele><time>2015-03-11T12:10:50Z</time></trkpt><trkpt lat="51.9276355114" lon="-1.6489521135"><ele>113.57</ele><time>2015-03-11T12:11:04Z</time></trkpt><trkpt lat="51.9275433943" lon="-1.6491258703"><ele>112.13</ele><time>2015-03-11T12:11:18Z</time></trkpt><trkpt lat="51.9275395386" lon="-1.6491649300"><ele>114.05</ele><time>2015-03-11T12:11:29Z</time></trkpt><trkpt lat="51.9275194220" lon="-1.6491887346"><ele>112.61</ele><time>2015-03-11T12:11:43Z</time></trkpt><trkpt lat="51.9275164884" lon="-1.6492148023"><ele>113.09</ele><time>2015-03-11T12:11:45Z</time></trkpt><trkpt lat="51.9274692982" lon="-1.6494771559"><ele>112.61</ele><time>2015-03-11T12:11:59Z</time></trkpt><trkpt lat="51.9274732377" lon="-1.6496675927"><ele>112.61</ele><time>2015-03-11T12:12:10Z</time></trkpt><trkpt lat="51.9275542907" lon="-1.6498656571"><ele>112.61</ele><time>2015-03-11T12:12:23Z</time></trkpt><trkpt lat="51.9275899138" lon="-1.6499296110"><ele>112.61</ele><time>2015-03-11T12:12:28Z</time></trkpt><trkpt lat="51.9277132954" lon="-1.6501333751"><ele>112.61</ele><time>2015-03-11T12:12:44Z</time></trkpt><trkpt lat="51.9277168158" lon="-1.6501485463"><ele>112.61</ele><time>2015-03-11T12:12:45Z</time></trkpt><trkpt lat="51.9277274609" lon="-1.6502147634"><ele>112.61</ele><time>2015-03-11T12:12:49Z</time></trkpt><trkpt lat="51.9277319871" lon="-1.6502790526"><ele>112.13</ele><time>2015-03-11T12:12:53Z</time></trkpt><trkpt lat="51.9276734814" lon="-1.6504797991"><ele>112.61</ele><time>2015-03-11T12:13:06Z</time></trkpt><trkpt lat="51.9276008941" lon="-1.6505793761"><ele>113.57</ele><time>2015-03-11T12:13:16Z</time></trkpt><trkpt lat="51.9275410473" lon="-1.6506939568"><ele>113.09</ele><time>2015-03-11T12:13:30Z</time></trkpt><trkpt lat="51.9274965394" lon="-1.6507469304"><ele>113.57</ele><time>2015-03-11T12:13:36Z</time></trkpt><trkpt lat="51.9274739921" lon="-1.6507703997"><ele>113.57</ele><time>2015-03-11T12:13:38Z</time></trkpt><trkpt lat="51.9273762591" lon="-1.6509330086"><ele>112.61</ele><time>2015-03-11T12:13:51Z</time></trkpt><trkpt lat="51.9273485150" lon="-1.6511500999"><ele>112.61</ele><time>2015-03-11T12:14:04Z</time></trkpt><trkpt lat="51.9273512810" lon="-1.6511609964"><ele>113.09</ele><time>2015-03-11T12:14:09Z</time></trkpt><trkpt lat="51.9274448231" lon="-1.6513787583"><ele>113.09</ele><time>2015-03-11T12:14:22Z</time></trkpt><trkpt lat="51.9274521992" lon="-1.6514049098"><ele>112.13</ele><time>2015-03-11T12:14:24Z</time></trkpt><trkpt lat="51.9275432266" lon="-1.6515888926"><ele>112.61</ele><time>2015-03-11T12:14:37Z</time></trkpt><trkpt lat="51.9275543746" lon="-1.6516143735"><ele>112.13</ele><time>2015-03-11T12:14:39Z</time></trkpt><trkpt lat="51.9275961164" lon="-1.6518516652"><ele>112.61</ele><time>2015-03-11T12:14:53Z</time></trkpt><trkpt lat="51.9275982957" lon="-1.6518831812"><ele>113.09</ele><time>2015-03-11T12:14:55Z</time></trkpt><trkpt lat="51.9275635947" lon="-1.6521207243"><ele>113.09</ele><time>2015-03-11T12:15:10Z</time></trkpt><trkpt lat="51.9275589846" lon="-1.6521323752"><ele>113.09</ele><time>2015-03-11T12:15:11Z</time></trkpt><trkpt lat="51.9275112078" lon="-1.6523482092"><ele>112.61</ele><time>2015-03-11T12:15:24Z</time></trkpt><trkpt lat="51.9274778478" lon="-1.6525196191"><ele>113.09</ele><time>2015-03-11T12:15:35Z</time></trkpt><trkpt lat="51.9274470862" lon="-1.6527127381"><ele>113.57</ele><time>2015-03-11T12:15:46Z</time></trkpt><trkpt lat="51.9273909274" lon="-1.6529493593"><ele>115.01</ele><time>2015-03-11T12:16:01Z</time></trkpt><trkpt lat="51.9273324218" lon="-1.6532024089"><ele>114.05</ele><time>2015-03-11T12:16:16Z</time></trkpt><trkpt lat="51.9273176696" lon="-1.6532514431"><ele>115.50</ele><time>2015-03-11T12:16:19Z</time></trkpt><trkpt lat="51.9273150712" lon="-1.6532770917"><ele>115.01</ele><time>2015-03-11T12:16:21Z</time></trkpt><trkpt lat="51.9273049291" lon="-1.6533258744"><ele>114.53</ele><time>2015-03-11T12:16:24Z</time></trkpt><trkpt lat="51.9272537995" lon="-1.6535288002"><ele>115.50</ele><time>2015-03-11T12:16:37Z</time></trkpt><trkpt lat="51.9272087887" lon="-1.6537679359"><ele>116.46</ele><time>2015-03-11T12:16:51Z</time></trkpt><trkpt lat="51.9272047654" lon="-1.6537802573"><ele>115.01</ele><time>2015-03-11T12:16:52Z</time></trkpt><trkpt lat="51.9271644484" lon="-1.6539923195"><ele>116.46</ele><time>2015-03-11T12:17:05Z</time></trkpt><trkpt lat="51.9271517918" lon="-1.6540579498"><ele>116.94</ele><time>2015-03-11T12:17:18Z</time></trkpt><trkpt lat="51.9271432422" lon="-1.6541146114"><ele>116.46</ele><time>2015-03-11T12:17:22Z</time></trkpt><trkpt lat="51.9270725828" lon="-1.6543329600"><ele>116.94</ele><time>2015-03-11T12:17:35Z</time></trkpt><trkpt lat="51.9270683918" lon="-1.6543724388"><ele>115.98</ele><time>2015-03-11T12:17:37Z</time></trkpt><trkpt lat="51.9269828964" lon="-1.6546113230"><ele>117.42</ele><time>2015-03-11T12:17:53Z</time></trkpt><trkpt lat="51.9269114826" lon="-1.6547992453"><ele>117.90</ele><time>2015-03-11T12:18:06Z</time></trkpt><trkpt lat="51.9268720876" lon="-1.6549087968"><ele>119.34</ele><time>2015-03-11T12:18:14Z</time></trkpt><trkpt lat="51.9268087205" lon="-1.6551310010"><ele>119.34</ele><time>2015-03-11T12:18:28Z</time></trkpt><trkpt lat="51.9267771207" lon="-1.6553107928"><ele>119.34</ele><time>2015-03-11T12:18:38Z</time></trkpt><trkpt lat="51.9267602731" lon="-1.6554124653"><ele>120.30</ele><time>2015-03-11T12:18:45Z</time></trkpt><trkpt lat="51.9267261587" lon="-1.6555498447"><ele>120.78</ele><time>2015-03-11T12:18:54Z</time></trkpt><trkpt lat="51.9266992528" lon="-1.6556278802"><ele>120.78</ele><time>2015-03-11T12:19:00Z</time></trkpt><trkpt lat="51.9266917929" lon="-1.6556603182"><ele>121.26</ele><time>2015-03-11T12:19:02Z</time></trkpt><trkpt lat="51.9266218878" lon="-1.6558004636"><ele>122.22</ele><time>2015-03-11T12:19:13Z</time></trkpt><trkpt lat="51.9265741110" lon="-1.6559259407"><ele>122.22</ele><time>2015-03-11T12:19:23Z</time></trkpt><trkpt lat="51.9265308604" lon="-1.6560348216"><ele>123.19</ele><time>2015-03-11T12:19:30Z</time></trkpt><trkpt lat="51.9265240710" lon="-1.6560509987"><ele>122.71</ele><time>2015-03-11T12:19:31Z</time></trkpt><trkpt lat="51.9264828321" lon="-1.6561286151"><ele>124.15</ele><time>2015-03-11T12:19:37Z</time></trkpt><trkpt lat="51.9264531601" lon="-1.6561935749"><ele>124.15</ele><time>2015-03-11T12:19:42Z</time></trkpt><trkpt lat="51.9263846800" lon="-1.6563707683"><ele>124.15</ele><time>2015-03-11T12:19:55Z</time></trkpt><trkpt lat="51.9263440277" lon="-1.6564936470"><ele>127.03</ele><time>2015-03-11T12:20:04Z</time></trkpt><trkpt lat="51.9263165351" lon="-1.6565612052"><ele>127.03</ele><time>2015-03-11T12:20:09Z</time></trkpt><trkpt lat="51.9262904674" lon="-1.6566021089"><ele>127.51</ele><time>2015-03-11T12:20:12Z</time></trkpt><trkpt lat="51.9262711052" lon="-1.6566582676"><ele>127.51</ele><time>2015-03-11T12:20:17Z</time></trkpt><trkpt lat="51.9262351468" lon="-1.6567660589"><ele>127.99</ele><time>2015-03-11T12:20:30Z</time></trkpt><trkpt lat="51.9261481427" lon="-1.6569549870"><ele>128.95</ele><time>2015-03-11T12:20:45Z</time></trkpt><trkpt lat="51.9261418562" lon="-1.6569692362"><ele>129.43</ele><time>2015-03-11T12:20:46Z</time></trkpt><trkpt lat="51.9261026289" lon="-1.6570600122"><ele>130.88</ele><time>2015-03-11T12:20:52Z</time></trkpt><trkpt lat="51.9260390103" lon="-1.6572067793"><ele>130.88</ele><time>2015-03-11T12:21:03Z</time></trkpt><trkpt lat="51.9259500783" lon="-1.6574060172"><ele>131.84</ele><time>2015-03-11T12:21:16Z</time></trkpt><trkpt lat="51.9258583803" lon="-1.6576560494"><ele>131.84</ele><time>2015-03-11T12:21:32Z</time></trkpt><trkpt lat="51.9257826917" lon="-1.6578499228"><ele>132.80</ele><time>2015-03-11T12:21:45Z</time></trkpt><trkpt lat="51.9257673528" lon="-1.6578897368"><ele>131.84</ele><time>2015-03-11T12:21:48Z</time></trkpt><trkpt lat="51.9256823603" lon="-1.6580846161"><ele>133.28</ele><time>2015-03-11T12:22:02Z</time></trkpt><trkpt lat="51.9256530236" lon="-1.6581556108"><ele>132.80</ele><time>2015-03-11T12:22:07Z</time></trkpt><trkpt lat="51.9256031513" lon="-1.6582820937"><ele>133.28</ele><time>2015-03-11T12:22:16Z</time></trkpt><trkpt lat="51.9255070947" lon="-1.6584964190"><ele>134.24</ele><time>2015-03-11T12:22:31Z</time></trkpt><trkpt lat="51.9254207611" lon="-1.6586295236"><ele>133.76</ele><time>2015-03-11T12:22:43Z</time></trkpt><trkpt lat="51.9254089426" lon="-1.6586637218"><ele>133.76</ele><time>2015-03-11T12:22:45Z</time></trkpt><trkpt lat="51.9254138879" lon="-1.6587467864"><ele>133.76</ele><time>2015-03-11T12:22:50Z</time></trkpt><trkpt lat="51.9255269598" lon="-1.6588855069"><ele>133.76</ele><time>2015-03-11T12:23:04Z</time></trkpt><trkpt lat="51.9255586434" lon="-1.6589021869"><ele>134.24</ele><time>2015-03-11T12:23:08Z</time></trkpt><trkpt lat="51.9255908299" lon="-1.6589089762"><ele>134.72</ele><time>2015-03-11T12:23:11Z</time></trkpt><trkpt lat="51.9257096015" lon="-1.6589945555"><ele>133.28</ele><time>2015-03-11T12:23:26Z</time></trkpt><trkpt lat="51.9258142915" lon="-1.6590694897"><ele>134.72</ele><time>2015-03-11T12:23:37Z</time></trkpt><trkpt lat="51.9258381799" lon="-1.6590971500"><ele>134.72</ele><time>2015-03-11T12:23:40Z</time></trkpt><trkpt lat="51.9259490725" lon="-1.6591838188"><ele>134.24</ele><time>2015-03-11T12:23:54Z</time></trkpt><trkpt lat="51.9260790758" lon="-1.6592443362"><ele>133.76</ele><time>2015-03-11T12:24:09Z</time></trkpt><trkpt lat="51.9261110947" lon="-1.6592747625"><ele>133.28</ele><time>2015-03-11T12:24:13Z</time></trkpt><trkpt lat="51.9261694327" lon="-1.6593013331"><ele>133.28</ele><time>2015-03-11T12:24:19Z</time></trkpt><trkpt lat="51.9262827560" lon="-1.6593705676"><ele>132.32</ele><time>2015-03-11T12:24:30Z</time></trkpt><trkpt lat="51.9263595343" lon="-1.6594176739"><ele>131.84</ele><time>2015-03-11T12:24:41Z</time></trkpt><trkpt lat="51.9263985939" lon="-1.6594471782"><ele>131.36</ele><time>2015-03-11T12:24:45Z</time></trkpt><trkpt lat="51.9264305290" lon="-1.6594704799"><ele>131.36</ele><time>2015-03-11T12:24:48Z</time></trkpt><trkpt lat="51.9264725223" lon="-1.6595024988"><ele>130.88</ele><time>2015-03-11T12:24:52Z</time></trkpt><trkpt lat="51.9265058823" lon="-1.6595168319"><ele>130.88</ele><time>2015-03-11T12:24:55Z</time></trkpt><trkpt lat="51.9266138412" lon="-1.6595826298"><ele>129.43</ele><time>2015-03-11T12:25:08Z</time></trkpt><trkpt lat="51.9266678207" lon="-1.6596133076"><ele>129.43</ele><time>2015-03-11T12:25:12Z</time></trkpt><trkpt lat="51.9267407432" lon="-1.6596594080"><ele>129.43</ele><time>2015-03-11T12:25:18Z</time></trkpt><trkpt lat="51.9268510491" lon="-1.6597238649"><ele>129.43</ele><time>2015-03-11T12:25:32Z</time></trkpt><trkpt lat="51.9269439206" lon="-1.6597935185"><ele>129.43</ele><time>2015-03-11T12:25:46Z</time></trkpt><trkpt lat="51.9270326849" lon="-1.6598560475"><ele>129.43</ele><time>2015-03-11T12:25:58Z</time></trkpt><trkpt lat="51.9271742553" lon="-1.6599426325"><ele>130.40</ele><time>2015-03-11T12:26:13Z</time></trkpt><trkpt lat="51.9272035919" lon="-1.6599484161"><ele>130.40</ele><time>2015-03-11T12:26:15Z</time></trkpt><trkpt lat="51.9272848126" lon="-1.6599975340"><ele>130.40</ele><time>2015-03-11T12:26:29Z</time></trkpt><trkpt lat="51.9273737445" lon="-1.6600252781"><ele>128.95</ele><time>2015-03-11T12:26:37Z</time></trkpt><trkpt lat="51.9275001436" lon="-1.6600636672"><ele>128.47</ele><time>2015-03-11T12:26:47Z</time></trkpt><trkpt lat="51.9276386965" lon="-1.6601519287"><ele>127.03</ele><time>2015-03-11T12:27:00Z</time></trkpt><trkpt lat="51.9277089369" lon="-1.6602409445"><ele>126.07</ele><time>2015-03-11T12:27:12Z</time></trkpt><trkpt lat="51.9277164806" lon="-1.6602472309"><ele>125.59</ele><time>2015-03-11T12:27:13Z</time></trkpt><trkpt lat="51.9277710468" lon="-1.6603051499"><ele>126.07</ele><time>2015-03-11T12:27:19Z</time></trkpt><trkpt lat="51.9278116990" lon="-1.6603395995"><ele>127.03</ele><time>2015-03-11T12:27:24Z</time></trkpt><trkpt lat="51.9278329890" lon="-1.6603633203"><ele>127.03</ele><time>2015-03-11T12:27:26Z</time></trkpt><trkpt lat="51.9279443845" lon="-1.6605350655"><ele>126.07</ele><time>2015-03-11T12:27:39Z</time></trkpt><trkpt lat="51.9279453065" lon="-1.6605441179"><ele>126.07</ele><time>2015-03-11T12:27:40Z</time></trkpt><trkpt lat="51.9280737173" lon="-1.6606270988"><ele>126.07</ele><time>2015-03-11T12:27:53Z</time></trkpt><trkpt lat="51.9280978572" lon="-1.6607556771"><ele>125.59</ele><time>2015-03-11T12:28:05Z</time></trkpt><trkpt lat="51.9281484839" lon="-1.6608962417"><ele>125.59</ele><time>2015-03-11T12:28:18Z</time></trkpt><trkpt lat="51.9281619787" lon="-1.6611034423"><ele>124.15</ele><time>2015-03-11T12:28:31Z</time></trkpt><trkpt lat="51.9281831011" lon="-1.6612546518"><ele>123.19</ele><time>2015-03-11T12:28:42Z</time></trkpt><trkpt lat="51.9282470550" lon="-1.6613879241"><ele>122.22</ele><time>2015-03-11T12:28:55Z</time></trkpt><trkpt lat="51.9282829296" lon="-1.6615517903"><ele>121.74</ele><time>2015-03-11T12:29:07Z</time></trkpt><trkpt lat="51.9283794891" lon="-1.6617610864"><ele>121.74</ele><time>2015-03-11T12:29:20Z</time></trkpt><trkpt lat="51.9284393359" lon="-1.6618287284"><ele>121.26</ele><time>2015-03-11T12:29:27Z</time></trkpt><trkpt lat="51.9284772221" lon="-1.6619434766"><ele>120.78</ele><time>2015-03-11T12:29:35Z</time></trkpt><trkpt lat="51.9285566825" lon="-1.6621589754"><ele>120.78</ele><time>2015-03-11T12:29:49Z</time></trkpt><trkpt lat="51.9285595324" lon="-1.6622447222"><ele>120.30</ele><time>2015-03-11T12:30:04Z</time></trkpt><trkpt lat="51.9285798166" lon="-1.6622870509"><ele>121.74</ele><time>2015-03-11T12:30:07Z</time></trkpt><trkpt lat="51.9286378194" lon="-1.6624639928"><ele>119.82</ele><time>2015-03-11T12:30:18Z</time></trkpt><trkpt lat="51.9286669884" lon="-1.6625420284"><ele>119.34</ele><time>2015-03-11T12:30:23Z</time></trkpt><trkpt lat="51.9286960736" lon="-1.6625840217"><ele>118.86</ele><time>2015-03-11T12:30:27Z</time></trkpt><trkpt lat="51.9287651405" lon="-1.6627363209"><ele>118.86</ele><time>2015-03-11T12:30:42Z</time></trkpt><trkpt lat="51.9287825748" lon="-1.6627827566"><ele>119.34</ele><time>2015-03-11T12:30:48Z</time></trkpt><trkpt lat="51.9288440142" lon="-1.6629178729"><ele>119.82</ele><time>2015-03-11T12:30:55Z</time></trkpt><trkpt lat="51.9288909528" lon="-1.6629803181"><ele>119.82</ele><time>2015-03-11T12:31:01Z</time></trkpt><trkpt lat="51.9289595168" lon="-1.6630867682"><ele>119.34</ele><time>2015-03-11T12:31:08Z</time></trkpt><trkpt lat="51.9290601835" lon="-1.6632041149"><ele>119.34</ele><time>2015-03-11T12:31:18Z</time></trkpt><trkpt lat="51.9290777016" lon="-1.6632290930"><ele>119.82</ele><time>2015-03-11T12:31:20Z</time></trkpt><trkpt lat="51.9291485287" lon="-1.6632969864"><ele>119.34</ele><time>2015-03-11T12:31:27Z</time></trkpt><trkpt lat="51.9292515423" lon="-1.6633488704"><ele>119.34</ele><time>2015-03-11T12:31:36Z</time></trkpt><trkpt lat="51.9294014107" lon="-1.6633860022"><ele>120.30</ele><time>2015-03-11T12:31:51Z</time></trkpt><trkpt lat="51.9295333419" lon="-1.6634015925"><ele>121.74</ele><time>2015-03-11T12:32:07Z</time></trkpt><trkpt lat="51.9296252076" lon="-1.6634041071"><ele>122.22</ele><time>2015-03-11T12:32:14Z</time></trkpt><trkpt lat="51.9297591504" lon="-1.6634215415"><ele>123.19</ele><time>2015-03-11T12:32:23Z</time></trkpt><trkpt lat="51.9298741501" lon="-1.6634000838"><ele>124.15</ele><time>2015-03-11T12:32:37Z</time></trkpt><trkpt lat="51.9299697038" lon="-1.6634090524"><ele>126.55</ele><time>2015-03-11T12:32:50Z</time></trkpt><trkpt lat="51.9300644193" lon="-1.6634141654"><ele>127.03</ele><time>2015-03-11T12:33:06Z</time></trkpt><trkpt lat="51.9301836099" lon="-1.6634496208"><ele>127.03</ele><time>2015-03-11T12:33:19Z</time></trkpt><trkpt lat="51.9302627351" lon="-1.6634947993"><ele>126.55</ele><time>2015-03-11T12:33:25Z</time></trkpt><trkpt lat="51.9305029605" lon="-1.6636425722"><ele>129.43</ele><time>2015-03-11T12:33:42Z</time></trkpt><trkpt lat="51.9306129310" lon="-1.6637272295"><ele>130.40</ele><time>2015-03-11T12:33:52Z</time></trkpt><trkpt lat="51.9306949060" lon="-1.6637872439"><ele>130.40</ele><time>2015-03-11T12:34:00Z</time></trkpt><trkpt lat="51.9308158569" lon="-1.6638508625"><ele>131.84</ele><time>2015-03-11T12:34:11Z</time></trkpt><trkpt lat="51.9309145119" lon="-1.6639100388"><ele>132.32</ele><time>2015-03-11T12:34:24Z</time></trkpt><trkpt lat="51.9309644680" lon="-1.6639439855"><ele>132.80</ele><time>2015-03-11T12:34:34Z</time></trkpt><trkpt lat="51.9310218003" lon="-1.6639822908"><ele>132.80</ele><time>2015-03-11T12:34:41Z</time></trkpt><trkpt lat="51.9311441761" lon="-1.6640806105"><ele>133.28</ele><time>2015-03-11T12:34:56Z</time></trkpt><trkpt lat="51.9312623609" lon="-1.6641987115"><ele>133.28</ele><time>2015-03-11T12:35:11Z</time></trkpt><trkpt lat="51.9312708266" lon="-1.6642007232"><ele>133.28</ele><time>2015-03-11T12:35:12Z</time></trkpt><trkpt lat="51.9314017519" lon="-1.6642699577"><ele>133.28</ele><time>2015-03-11T12:35:27Z</time></trkpt><trkpt lat="51.9314434938" lon="-1.6641314887"><ele>133.28</ele><time>2015-03-11T12:35:38Z</time></trkpt><trkpt lat="51.9314807933" lon="-1.6640572250"><ele>132.32</ele><time>2015-03-11T12:35:47Z</time></trkpt><trkpt lat="51.9315338507" lon="-1.6639643535"><ele>132.32</ele><time>2015-03-11T12:36:00Z</time></trkpt><trkpt lat="51.9315364491" lon="-1.6639501881"><ele>132.32</ele><time>2015-03-11T12:36:01Z</time></trkpt><trkpt lat="51.9315895904" lon="-1.6638211068"><ele>131.84</ele><time>2015-03-11T12:36:08Z</time></trkpt><trkpt lat="51.9315900933" lon="-1.6636684723"><ele>131.84</ele><time>2015-03-11T12:36:17Z</time></trkpt><trkpt lat="51.9316102937" lon="-1.6635405645"><ele>131.84</ele><time>2015-03-11T12:36:25Z</time></trkpt><trkpt lat="51.9316119701" lon="-1.6632804740"><ele>131.36</ele><time>2015-03-11T12:36:38Z</time></trkpt><trkpt lat="51.9315714017" lon="-1.6630809009"><ele>130.88</ele><time>2015-03-11T12:36:50Z</time></trkpt><trkpt lat="51.9315746706" lon="-1.6628801543"><ele>131.36</ele><time>2015-03-11T12:37:02Z</time></trkpt><trkpt lat="51.9316133112" lon="-1.6627843492"><ele>130.88</ele><time>2015-03-11T12:37:09Z</time></trkpt><trkpt lat="51.9316490181" lon="-1.6626302898"><ele>131.36</ele><time>2015-03-11T12:37:17Z</time></trkpt><trkpt lat="51.9317186717" lon="-1.6625370830"><ele>130.88</ele><time>2015-03-11T12:37:26Z</time></trkpt><trkpt lat="51.9318381138" lon="-1.6625210736"><ele>129.92</ele><time>2015-03-11T12:37:37Z</time></trkpt><trkpt lat="51.9318727311" lon="-1.6626100894"><ele>130.40</ele><time>2015-03-11T12:37:51Z</time></trkpt><trkpt lat="51.9318700489" lon="-1.6626391746"><ele>130.40</ele><time>2015-03-11T12:37:54Z</time></trkpt><trkpt lat="51.9318518601" lon="-1.6633611079"><ele>130.88</ele><time>2015-03-11T12:38:13Z</time></trkpt><trkpt lat="51.9317851402" lon="-1.6626000311"><ele>129.92</ele><time>2015-03-11T12:38:31Z</time></trkpt><trkpt lat="51.9317573961" lon="-1.6625832673"><ele>130.40</ele><time>2015-03-11T12:38:43Z</time></trkpt><trkpt lat="51.9317601621" lon="-1.6625767294"><ele>130.88</ele><time>2015-03-11T12:38:48Z</time></trkpt></trkseg></trk></gpx>